M I D A S
Marine Information and Data Acquisition System
Tripno 730 of the Zeeleeuw from 2004-06-07 06:53:37 to 2004-06-07 15:48:18
Back to CruiseResearch ActivitiesStationsMapUnderway DataData graphs

EquipmentUnitsComment
TimeDGPSUTC
LatitudeDGPSDM.mWGS84
LongitudeDGPSDM.mWGS84
TemperatureSBE03/SBE38deg celciusITS90
ConductivitySBE21S/mITS90
SalinitySBE21 Practical Salinity Units
ChlorophylAChelsea fluorimeterg/lCalibrated in Aceton
Missing or incorrect values are displayed as -999
Sea surface data collected by the RV Zeeleeuw from 2004-06-07 06:53:37 to 2004-06-07 15:48:18
                                                                                    Next 1000 lines
Time Latitude Longitude Temperature Conductivity Salinity ChlorophylA
2004-06-07 06:53:46 51°13.597 2°56.096 21.7868 5.138727 31.793554 7.983195
2004-06-07 06:53:51 51°13.597 2°56.097 21.791021 5.138621 31.793681 7.983195
2004-06-07 06:53:56 51°13.597 2°56.097 21.804395 5.138621 31.793681 7.983195
2004-06-07 06:54:00 51°13.597 2°56.097 21.807866 5.138621 31.793681 8.016905
2004-06-07 06:54:06 51°13.597 2°56.097 21.807866 5.138621 31.793681 8.016905
2004-06-07 06:54:11 51°13.597 2°56.097 21.812836 5.138621 31.79454 7.983195
2004-06-07 06:54:16 51°13.597 2°56.097 21.80976 5.13841 31.793075 7.949486
2004-06-07 06:54:20 51°13.596 2°56.096 21.798123 5.138516 31.794237 8.016905
2004-06-07 06:54:26 51°13.596 2°56.096 21.792876 5.13841 31.793934 7.983195
2004-06-07 06:54:31 51°13.596 2°56.096 21.734263 5.13841 31.793505 7.983195
2004-06-07 06:54:36 51°13.597 2°56.094 21.734263 5.13841 31.793505 7.983195
2004-06-07 06:54:40 51°13.597 2°56.092 21.74749 5.138305 31.793202 7.949486
2004-06-07 06:54:47 51°13.598 2°56.088 21.735092 5.13841 31.794364 8.016905
2004-06-07 06:54:51 51°13.599 2°56.084 21.775159 5.138199 31.792899 7.949486
2004-06-07 06:54:56 51°13.601 2°56.078 21.8294 5.138199 31.793329 7.983195
2004-06-07 06:55:01 51°13.602 2°56.072 21.796111 5.138199 31.793758 7.983195
2004-06-07 06:55:07 51°13.605 2°56.064 21.796111 5.138199 31.793758 7.983195
2004-06-07 06:55:12 51°13.607 2°56.056 21.788891 5.138094 31.793455 8.016905
2004-06-07 06:55:17 51°13.609 2°56.048 21.793546 5.138094 31.793455 7.983195
2004-06-07 06:55:22 51°13.612 2°56.04 21.803685 5.138094 31.793885 8.016905
2004-06-07 06:55:26 51°13.614 2°56.032 21.816268 5.137988 31.793582 7.983195
2004-06-07 06:55:32 51°13.618 2°56.021 21.820054 5.137882 31.79242 7.983195
2004-06-07 06:55:37 51°13.621 2°56.012 21.820054 5.137882 31.79242 7.983195
2004-06-07 06:55:42 51°13.624 2°56.002 21.82175 5.137988 31.794011 7.949486
2004-06-07 06:55:47 51°13.627 2°55.991 21.835473 5.137882 31.793279 8.016905
2004-06-07 06:55:52 51°13.63 2°55.981 21.844462 5.137883 31.793709 7.983195
2004-06-07 06:55:57 51°13.633 2°55.97 21.824037 5.137883 31.793709 8.016905
2004-06-07 06:56:00 51°13.636 2°55.963 21.873315 5.137777 31.793406 7.949486
2004-06-07 06:56:07 51°13.641 2°55.948 21.873315 5.137777 31.793406 7.949486
2004-06-07 06:56:12 51°13.644 2°55.938 21.853884 5.137883 31.794138 7.983195
2004-06-07 06:56:17 51°13.648 2°55.927 21.847971 5.137671 31.793103 7.983195
2004-06-07 06:56:22 51°13.651 2°55.916 21.857629 5.137671 31.793532 7.983195
2004-06-07 06:56:27 51°13.655 2°55.905 21.851203 5.137671 31.793962 7.983195
2004-06-07 06:56:31 51°13.658 2°55.896 21.850809 5.137566 31.7928 7.949486
2004-06-07 06:56:36 51°13.661 2°55.885 21.850809 5.137566 31.7928 7.949486
2004-06-07 06:56:42 51°13.665 2°55.871 21.842057 5.137566 31.793229 7.983195
2004-06-07 06:56:47 51°13.667 2°55.86 21.837523 5.137566 31.793659 8.016905
2004-06-07 06:56:52 51°13.67 2°55.848 21.825496 5.13746 31.792927 7.949486
2004-06-07 06:56:57 51°13.672 2°55.836 21.83287 5.13746 31.793356 7.983195
2004-06-07 06:57:02 51°13.674 2°55.824 21.833304 5.137566 31.794089 7.983195
2004-06-07 06:57:07 51°13.676 2°55.813 21.833304 5.137566 31.794089 7.983195
2004-06-07 06:57:11 51°13.677 2°55.804 21.878123 5.13746 31.793786 7.983195
2004-06-07 06:57:16 51°13.678 2°55.794 21.843752 5.13746 31.794215 7.983195
2004-06-07 06:57:22 51°13.679 2°55.783 21.84253 5.137249 31.79275 7.949486
2004-06-07 06:57:26 51°13.68 2°55.777 21.899084 5.137249 31.79275 7.949486
2004-06-07 06:57:31 51°13.68 2°55.771 21.893057 5.137355 31.793483 7.983195
2004-06-07 06:57:36 51°13.68 2°55.766 21.893057 5.137355 31.793483 7.983195
2004-06-07 06:57:41 51°13.68 2°55.762 21.862714 5.137144 31.792448 7.983195
2004-06-07 06:57:46 51°13.68 2°55.76 21.867758 5.137355 31.793912 8.016905
2004-06-07 06:57:51 51°13.681 2°55.759 21.88033 5.137249 31.79361 7.949486
2004-06-07 06:57:56 51°13.682 2°55.758 21.904284 5.137249 31.794469 7.949486
2004-06-07 06:58:00 51°13.682 2°55.759 21.925868 5.137249 31.794469 7.983195
2004-06-07 06:58:06 51°13.684 2°55.761 21.925868 5.137249 31.794469 7.983195
2004-06-07 06:58:11 51°13.686 2°55.763 21.991838 5.137144 31.794166 7.983195
2004-06-07 06:58:16 51°13.689 2°55.766 22.064901 5.137144 31.795025 7.983195
2004-06-07 06:58:22 51°13.693 2°55.769 22.018941 5.137144 31.795455 7.983195
2004-06-07 06:58:26 51°13.696 2°55.77 21.935003 5.136933 31.79442 7.949486
2004-06-07 06:58:31 51°13.699 2°55.772 21.859797 5.136933 31.79442 7.983195
2004-06-07 06:58:35 51°13.701 2°55.772 21.859797 5.136933 31.79442 7.983195
2004-06-07 06:58:41 51°13.704 2°55.773 21.787668 5.136933 31.79442 7.983195
2004-06-07 06:58:46 51°13.704 2°55.773 21.842767 5.136933 31.79442 8.016905
2004-06-07 06:58:51 51°13.704 2°55.773 21.791653 5.136827 31.793687 7.983195
2004-06-07 06:58:56 51°13.704 2°55.773 21.757635 5.136933 31.793131 7.983195
2004-06-07 06:59:01 51°13.702 2°55.773 21.862556 5.136827 31.793687 7.983195
2004-06-07 06:59:06 51°13.7 2°55.773 21.862556 5.136827 31.793687 7.983195
2004-06-07 06:59:12 51°13.697 2°55.772 21.856249 5.136722 31.792525 7.983195
2004-06-07 06:59:17 51°13.694 2°55.771 21.857038 5.136827 31.793687 7.983195
2004-06-07 06:59:22 51°13.692 2°55.77 21.909602 5.136616 31.792652 7.983195
2004-06-07 06:59:27 51°13.69 2°55.77 21.893057 5.136616 31.792652 7.983195
2004-06-07 06:59:31 51°13.689 2°55.769 21.965197 5.136511 31.793208 7.983195
2004-06-07 06:59:36 51°13.689 2°55.769 21.965197 5.136511 31.793208 7.983195
2004-06-07 06:59:42 51°13.691 2°55.768 22.029834 5.136616 31.793511 7.983195
2004-06-07 06:59:47 51°13.693 2°55.767 22.0559 5.136511 31.794067 7.949486
2004-06-07 06:59:52 51°13.696 2°55.765 22.093155 5.136616 31.79523 8.016905
2004-06-07 06:59:56 51°13.698 2°55.763 22.090169 5.136511 31.794927 7.949486
2004-06-07 07:00:02 51°13.703 2°55.758 22.020003 5.136405 31.794194 8.016905
2004-06-07 07:00:07 51°13.708 2°55.754 22.020003 5.136405 31.794194 8.016905
2004-06-07 07:00:12 51°13.713 2°55.748 21.973265 5.136511 31.794497 7.983195
2004-06-07 07:00:16 51°13.718 2°55.743 21.877887 5.136511 31.794067 8.016905
2004-06-07 07:00:20 51°13.722 2°55.739 21.862556 5.1363 31.792172 7.949486
2004-06-07 07:00:26 51°13.729 2°55.731 21.837089 5.136405 31.793335 8.016905
2004-06-07 07:00:31 51°13.735 2°55.725 21.798162 5.1363 31.792602 7.983195
2004-06-07 07:00:36 51°13.74 2°55.718 21.798162 5.1363 31.792602 7.983195
2004-06-07 07:00:40 51°13.745 2°55.713 21.830938 5.1363 31.793032 7.983195
2004-06-07 07:00:46 51°13.752 2°55.706 21.828257 5.1363 31.793462 7.949486
2004-06-07 07:00:51 51°13.757 2°55.699 21.827941 5.1363 31.794321 7.949486
2004-06-07 07:00:56 51°13.764 2°55.693 21.819028 5.136194 31.794448 7.983195
2004-06-07 07:01:00 51°13.768 2°55.688 21.812679 5.136089 31.793715 8.016905
2004-06-07 07:01:06 51°13.776 2°55.68 21.812679 5.136089 31.793715 8.016905
2004-06-07 07:01:11 51°13.783 2°55.674 21.817806 5.136194 31.794878 7.983195
2004-06-07 07:01:16 51°13.79 2°55.668 21.820882 5.136089 31.794575 8.016905
2004-06-07 07:01:20 51°13.796 2°55.664 21.821276 5.135983 31.794702 7.983195
2004-06-07 07:01:26 51°13.805 2°55.657 21.823209 5.135983 31.794702 7.983195
2004-06-07 07:01:31 51°13.813 2°55.651 21.824865 5.135983 31.795131 7.983195
2004-06-07 07:01:36 51°13.82 2°55.646 21.824865 5.135983 31.795131 7.983195
2004-06-07 07:01:40 51°13.827 2°55.641 21.834093 5.136089 31.796294 7.949486
2004-06-07 07:01:46 51°13.837 2°55.634 21.843674 5.135983 31.796421 7.983195
2004-06-07 07:01:51 51°13.845 2°55.628 21.851125 5.135878 31.795258 7.983195
2004-06-07 07:01:56 51°13.854 2°55.622 21.851361 5.135772 31.794955 7.949486
2004-06-07 07:02:01 51°13.863 2°55.615 21.856801 5.135772 31.794096 8.016905
2004-06-07 07:02:06 51°13.872 2°55.609 21.856801 5.135772 31.794096 8.016905
2004-06-07 07:02:11 51°13.881 2°55.602 21.827034 5.135772 31.794096 7.983195
2004-06-07 07:02:16 51°13.89 2°55.596 21.84052 5.135772 31.794096 7.983195
2004-06-07 07:02:21 51°13.899 2°55.59 21.838233 5.135667 31.793793 7.983195
2004-06-07 07:02:26 51°13.909 2°55.583 21.841308 5.135772 31.794526 7.983195
2004-06-07 07:02:31 51°13.918 2°55.577 21.833383 5.135772 31.795385 7.983195
2004-06-07 07:02:36 51°13.928 2°55.57 21.833383 5.135772 31.795385 7.983195
2004-06-07 07:02:41 51°13.938 2°55.564 21.80692 5.135667 31.794653 7.983195
2004-06-07 07:02:46 51°13.947 2°55.558 21.817609 5.135561 31.795209 7.983195
2004-06-07 07:02:51 51°13.957 2°55.551 21.827862 5.135456 31.794906 7.983195
2004-06-07 07:02:56 51°13.967 2°55.545 21.846433 5.135456 31.794477 7.983195
2004-06-07 07:03:01 51°13.977 2°55.538 21.84115 5.135456 31.794906 7.983195
2004-06-07 07:03:05 51°13.985 2°55.533 21.84115 5.135456 31.794906 7.983195
2004-06-07 07:03:10 51°13.995 2°55.526 21.84868 5.135456 31.794477 7.983195
2004-06-07 07:03:15 51°14.005 2°55.519 21.842136 5.135561 31.79478 7.983195
2004-06-07 07:03:21 51°14.017 2°55.51 21.851282 5.135456 31.794477 7.983195
2004-06-07 07:03:26 51°14.027 2°55.503 21.844975 5.135456 31.794477 8.016905
2004-06-07 07:03:31 51°14.037 2°55.496 21.847498 5.13535 31.794604 7.983195
2004-06-07 07:03:36 51°14.047 2°55.489 21.847498 5.13535 31.794604 7.983195
2004-06-07 07:03:41 51°14.057 2°55.482 21.856328 5.135245 31.794731 7.949486
2004-06-07 07:03:46 51°14.067 2°55.474 21.855816 5.13535 31.795463 7.983195
2004-06-07 07:03:51 51°14.078 2°55.466 21.861925 5.135245 31.79516 8.016905
2004-06-07 07:03:56 51°14.088 2°55.458 21.855973 5.135245 31.79516 7.983195
2004-06-07 07:04:00 51°14.097 2°55.452 21.858851 5.135245 31.79516 7.983195
2004-06-07 07:04:06 51°14.11 2°55.442 21.858851 5.135245 31.79516 7.983195
2004-06-07 07:04:11 51°14.122 2°55.433 21.860625 5.135139 31.793998 7.949486
2004-06-07 07:04:16 51°14.133 2°55.424 21.847143 5.135139 31.793998 7.983195
2004-06-07 07:04:21 51°14.144 2°55.414 21.859087 5.135245 31.79516 8.016905
2004-06-07 07:04:26 51°14.155 2°55.404 21.874892 5.135139 31.794858 7.983195
2004-06-07 07:04:31 51°14.167 2°55.394 21.89412 5.135139 31.795717 7.983195
2004-06-07 07:04:36 51°14.178 2°55.382 21.89412 5.135139 31.795717 7.983195
2004-06-07 07:04:41 51°14.19 2°55.37 21.88431 5.135139 31.796147 7.983195
2004-06-07 07:04:46 51°14.201 2°55.358 21.877887 5.135139 31.796147 7.983195
2004-06-07 07:04:51 51°14.212 2°55.344 21.877571 5.134928 31.795112 7.983195
2004-06-07 07:04:56 51°14.223 2°55.33 21.881315 5.134822 31.794379 7.949486
2004-06-07 07:05:01 51°14.234 2°55.316 21.910902 5.135034 31.796274 7.983195
2004-06-07 07:05:07 51°14.247 2°55.296 21.910902 5.135034 31.796274 7.983195
2004-06-07 07:05:11 51°14.255 2°55.283 21.901881 5.134823 31.794809 7.983195
2004-06-07 07:05:16 51°14.265 2°55.266 21.888841 5.134823 31.795239 7.983195
2004-06-07 07:05:19 51°14.271 2°55.256 21.838548 5.134717 31.794936 8.016905
2004-06-07 07:05:26 51°14.284 2°55.23 21.833265 5.134823 31.794809 7.983195
2004-06-07 07:05:31 51°14.294 2°55.211 21.83425 5.134823 31.795669 7.983195
2004-06-07 07:05:36 51°14.304 2°55.192 21.83425 5.134823 31.795669 7.983195
2004-06-07 07:05:41 51°14.314 2°55.172 21.807709 5.134717 31.794936 7.983195
2004-06-07 07:05:46 51°14.324 2°55.153 21.763398 5.134823 31.795669 7.983195
2004-06-07 07:05:51 51°14.335 2°55.132 21.800411 5.134611 31.794633 7.983195
2004-06-07 07:05:56 51°14.345 2°55.112 21.808616 5.134611 31.795493 7.983195
2004-06-07 07:06:00 51°14.353 2°55.095 21.755622 5.134611 31.795063 7.983195
2004-06-07 07:06:06 51°14.367 2°55.069 21.755622 5.134611 31.795063 7.983195
2004-06-07 07:06:11 51°14.378 2°55.048 21.718704 5.134717 31.795796 7.983195
2004-06-07 07:06:16 51°14.39 2°55.027 21.704959 5.134611 31.795493 8.016905
2004-06-07 07:06:22 51°14.404 2°55.001 21.738764 5.134506 31.79519 7.983195
2004-06-07 07:06:26 51°14.414 2°54.983 21.766595 5.134611 31.795923 7.949486
2004-06-07 07:06:31 51°14.426 2°54.961 21.815282 5.134506 31.79605 7.983195
2004-06-07 07:06:36 51°14.439 2°54.939 21.815282 5.134506 31.79605 7.983195
2004-06-07 07:06:40 51°14.448 2°54.921 21.784038 5.134612 31.796783 7.983195
2004-06-07 07:06:46 51°14.463 2°54.894 21.792639 5.134506 31.79648 7.983195
2004-06-07 07:06:51 51°14.475 2°54.872 21.859245 5.134295 31.795444 8.016905
2004-06-07 07:06:56 51°14.487 2°54.849 21.769436 5.134295 31.795014 7.983195
2004-06-07 07:07:00 51°14.497 2°54.831 21.786168 5.1344 31.796607 7.983195
2004-06-07 07:07:06 51°14.513 2°54.805 21.786168 5.1344 31.796607 7.983195
2004-06-07 07:07:11 51°14.526 2°54.784 21.75278 5.134295 31.795874 7.949486
2004-06-07 07:07:16 51°14.539 2°54.763 21.81753 5.134189 31.795141 8.016905
2004-06-07 07:07:21 51°14.552 2°54.742 21.839455 5.134084 31.794838 7.949486
2004-06-07 07:07:24 51°14.56 2°54.729 21.807354 5.134401 31.797897 7.983195
2004-06-07 07:07:31 51°14.579 2°54.7 21.834921 5.134189 31.796001 7.983195
2004-06-07 07:07:36 51°14.592 2°54.68 21.834921 5.134189 31.796001 7.983195
2004-06-07 07:07:41 51°14.606 2°54.66 21.83287 5.134084 31.796128 7.949486
2004-06-07 07:07:46 51°14.62 2°54.64 21.822893 5.134295 31.797164 7.983195
2004-06-07 07:07:51 51°14.634 2°54.621 21.836932 5.134084 31.796128 7.949486
2004-06-07 07:07:56 51°14.648 2°54.601 21.81966 5.134084 31.796558 7.983195
2004-06-07 07:07:59 51°14.656 2°54.59 21.839218 5.134084 31.796988 7.949486
2004-06-07 07:08:06 51°14.676 2°54.563 21.839218 5.134084 31.796988 7.949486
2004-06-07 07:08:11 51°14.69 2°54.544 21.852347 5.133978 31.796255 7.983195
2004-06-07 07:08:16 51°14.704 2°54.524 21.95705 5.134084 31.797418 7.983195
2004-06-07 07:08:20 51°14.715 2°54.509 21.876941 5.133873 31.796383 7.983195
2004-06-07 07:08:26 51°14.731 2°54.485 21.900266 5.133978 31.797116 7.983195
2004-06-07 07:08:31 51°14.745 2°54.465 21.822499 5.134084 31.798279 7.983195
2004-06-07 07:08:36 51°14.759 2°54.446 21.822499 5.134084 31.798279 7.983195
2004-06-07 07:08:40 51°14.77 2°54.43 21.823643 5.133767 31.79565 7.983195
2004-06-07 07:08:46 51°14.787 2°54.407 21.901369 5.133767 31.79608 8.016905
2004-06-07 07:08:51 51°14.8 2°54.387 21.869217 5.133873 31.796813 7.949486
2004-06-07 07:08:56 51°14.814 2°54.367 21.850139 5.133767 31.79651 7.983195
2004-06-07 07:09:00 51°14.825 2°54.352 21.851598 5.133662 31.796207 7.949486
2004-06-07 07:09:06 51°14.842 2°54.329 21.851598 5.133662 31.796207 7.949486
2004-06-07 07:09:11 51°14.856 2°54.31 21.845132 5.133662 31.796637 7.949486
2004-06-07 07:09:16 51°14.871 2°54.292 21.793467 5.133767 31.79737 7.983195
2004-06-07 07:09:20 51°14.882 2°54.277 21.836853 5.133662 31.796637 8.016905
2004-06-07 07:09:26 51°14.899 2°54.255 21.875877 5.133662 31.796637 7.983195
2004-06-07 07:09:31 51°14.913 2°54.236 21.905545 5.133662 31.797497 7.983195
2004-06-07 07:09:36 51°14.927 2°54.217 21.905545 5.133662 31.797497 7.983195
2004-06-07 07:09:40 51°14.938 2°54.201 21.92382 5.133451 31.796891 7.983195
2004-06-07 07:09:46 51°14.954 2°54.177 21.891993 5.133451 31.796891 7.949486
2004-06-07 07:09:51 51°14.968 2°54.157 21.87367 5.133556 31.797624 7.983195
2004-06-07 07:09:56 51°14.981 2°54.137 21.853963 5.133451 31.796891 7.983195
2004-06-07 07:10:00 51°14.992 2°54.121 21.870754 5.133451 31.796891 7.983195
2004-06-07 07:10:06 51°15.008 2°54.097 21.870754 5.133451 31.796891 7.983195
2004-06-07 07:10:11 51°15.021 2°54.076 21.884231 5.133451 31.796891 7.983195
2004-06-07 07:10:16 51°15.035 2°54.056 21.884507 5.133345 31.796588 7.949486
2004-06-07 07:10:21 51°15.048 2°54.035 21.884467 5.13324 31.796285 7.949486
2004-06-07 07:10:26 51°15.061 2°54.015 21.834842 5.133451 31.798182 7.949486
2004-06-07 07:10:31 51°15.075 2°53.994 21.890456 5.13324 31.796716 7.983195
2004-06-07 07:10:36 51°15.089 2°53.974 21.890456 5.13324 31.796716 7.983195
2004-06-07 07:10:41 51°15.103 2°53.954 21.869374 5.133345 31.798309 7.983195
2004-06-07 07:10:46 51°15.117 2°53.934 21.887856 5.133134 31.796843 7.983195
2004-06-07 07:10:51 51°15.13 2°53.913 21.851677 5.13324 31.797146 7.983195
2004-06-07 07:10:56 51°15.144 2°53.893 21.936893 5.133134 31.796843 8.016905
2004-06-07 07:11:01 51°15.157 2°53.871 21.981647 5.132923 31.796237 7.949486
2004-06-07 07:11:06 51°15.169 2°53.849 21.981647 5.132923 31.796237 7.949486
2004-06-07 07:11:11 51°15.182 2°53.827 21.970432 5.133134 31.798134 7.949486
2004-06-07 07:11:16 51°15.194 2°53.805 21.912989 5.133029 31.7974 7.983195
2004-06-07 07:11:20 51°15.204 2°53.787 21.910823 5.133029 31.7974 7.949486
2004-06-07 07:11:26 51°15.218 2°53.76 21.827547 5.133134 31.798564 7.983195
2004-06-07 07:11:31 51°15.231 2°53.737 21.880093 5.133029 31.7974 8.016905
2004-06-07 07:11:36 51°15.243 2°53.715 21.880093 5.133029 31.7974 8.016905
2004-06-07 07:11:40 51°15.253 2°53.697 21.873 5.132923 31.797097 7.983195
2004-06-07 07:11:46 51°15.268 2°53.671 21.842767 5.132923 31.797528 7.983195
2004-06-07 07:11:51 51°15.281 2°53.649 21.843161 5.132923 31.797528 7.983195
2004-06-07 07:11:56 51°15.294 2°53.628 21.87367 5.132818 31.797655 7.983195
2004-06-07 07:12:00 51°15.305 2°53.611 21.909011 5.132818 31.797655 7.983195
2004-06-07 07:12:06 51°15.32 2°53.585 21.909011 5.132818 31.797655 7.983195
2004-06-07 07:12:11 51°15.333 2°53.563 21.947012 5.132712 31.797352 7.983195
2004-06-07 07:12:16 51°15.346 2°53.541 21.930042 5.132607 31.797479 7.949486
2004-06-07 07:12:19 51°15.353 2°53.528 21.893805 5.132712 31.797352 7.949486
2004-06-07 07:12:26 51°15.371 2°53.498 21.891993 5.132607 31.796619 7.983195
2004-06-07 07:12:31 51°15.384 2°53.476 21.923505 5.132607 31.797049 7.949486
2004-06-07 07:12:36 51°15.397 2°53.455 21.923505 5.132607 31.797049 7.949486
2004-06-07 07:12:41 51°15.41 2°53.434 21.881945 5.132607 31.797479 7.983195
2004-06-07 07:12:46 51°15.423 2°53.413 21.867167 5.132712 31.798213 7.949486
2004-06-07 07:12:51 51°15.437 2°53.392 21.894908 5.132501 31.797177 7.949486
2004-06-07 07:12:56 51°15.45 2°53.371 21.901763 5.132396 31.797304 8.016905
2004-06-07 07:13:01 51°15.463 2°53.35 21.898808 5.132396 31.797304 7.983195
2004-06-07 07:13:06 51°15.476 2°53.329 21.898808 5.132396 31.797304 7.983195
2004-06-07 07:13:11 51°15.489 2°53.307 22.023503 5.132501 31.798898 7.983195
2004-06-07 07:13:16 51°15.501 2°53.285 21.932247 5.132501 31.798898 7.949486
2004-06-07 07:13:21 51°15.513 2°53.262 21.921418 5.132396 31.798595 7.949486
2004-06-07 07:13:26 51°15.524 2°53.24 21.939256 5.13229 31.797862 7.983195
2004-06-07 07:13:31 51°15.536 2°53.217 21.891835 5.132185 31.796268 7.983195
2004-06-07 07:13:36 51°15.548 2°53.194 21.891835 5.132185 31.796268 7.983195
2004-06-07 07:13:41 51°15.559 2°53.171 21.872527 5.132501 31.798898 7.949486
2004-06-07 07:13:46 51°15.571 2°53.148 21.895066 5.13229 31.797001 7.949486
2004-06-07 07:13:51 51°15.582 2°53.124 21.890929 5.13229 31.797862 7.983195
2004-06-07 07:13:56 51°15.594 2°53.102 21.885334 5.13229 31.798722 7.983195
2004-06-07 07:14:01 51°15.606 2°53.079 21.880724 5.13229 31.798722 7.949486
2004-06-07 07:14:06 51°15.617 2°53.055 21.880724 5.13229 31.798722 7.949486
2004-06-07 07:14:11 51°15.629 2°53.032 21.893963 5.132185 31.79885 8.016905
2004-06-07 07:14:16 51°15.64 2°53.009 21.950161 5.132185 31.79928 7.983195
2004-06-07 07:14:21 51°15.65 2°52.984 22.018469 5.131974 31.798244 7.983195
2004-06-07 07:14:26 51°15.66 2°52.959 21.976256 5.131974 31.798244 7.983195
2004-06-07 07:14:31 51°15.669 2°52.933 21.974879 5.131974 31.798244 7.949486
2004-06-07 07:14:36 51°15.678 2°52.907 21.974879 5.131974 31.798244 7.949486
2004-06-07 07:14:41 51°15.685 2°52.88 21.975863 5.132079 31.798977 8.016905
2004-06-07 07:14:46 51°15.692 2°52.852 21.952169 5.131974 31.798674 7.983195
2004-06-07 07:14:51 51°15.699 2°52.825 21.930042 5.131974 31.798674 7.983195
2004-06-07 07:14:56 51°15.705 2°52.797 21.923584 5.131974 31.798244 7.983195
2004-06-07 07:15:01 51°15.711 2°52.769 21.989399 5.131868 31.798371 7.949486
2004-06-07 07:15:06 51°15.716 2°52.74 21.989399 5.131868 31.798371 7.949486
2004-06-07 07:15:11 51°15.721 2°52.711 21.954924 5.131657 31.797335 7.983195
2004-06-07 07:15:16 51°15.725 2°52.682 21.922126 5.131763 31.798068 7.949486
2004-06-07 07:15:21 51°15.729 2°52.653 21.904639 5.131868 31.799663 7.949486
2004-06-07 07:15:24 51°15.731 2°52.635 21.905348 5.131763 31.798499 7.983195
2004-06-07 07:15:31 51°15.736 2°52.594 21.895617 5.131763 31.798929 7.949486
2004-06-07 07:15:36 51°15.739 2°52.565 21.895617 5.131763 31.798929 7.949486
2004-06-07 07:15:40 51°15.742 2°52.541 21.887935 5.131551 31.797032 7.949486
2004-06-07 07:15:45 51°15.746 2°52.512 21.90263 5.131552 31.797893 7.983195
2004-06-07 07:15:51 51°15.75 2°52.476 21.896405 5.131763 31.798499 7.983195
2004-06-07 07:15:56 51°15.754 2°52.446 21.919448 5.131446 31.797159 7.949486
2004-06-07 07:16:01 51°15.757 2°52.417 21.973502 5.131657 31.798626 7.949486
2004-06-07 07:16:06 51°15.759 2°52.387 21.973502 5.131657 31.798626 7.949486
2004-06-07 07:16:11 51°15.76 2°52.357 22.101601 5.131657 31.799918 7.983195
2004-06-07 07:16:16 51°15.76 2°52.328 22.01308 5.131446 31.799742 7.983195
2004-06-07 07:16:21 51°15.759 2°52.298 22.003325 5.131446 31.800603 7.949486
2004-06-07 07:16:27 51°15.757 2°52.262 21.968189 5.131552 31.800476 7.949486
2004-06-07 07:16:31 51°15.756 2°52.238 21.947681 5.131552 31.800476 7.949486
2004-06-07 07:16:37 51°15.753 2°52.202 21.947681 5.131552 31.800476 7.949486
2004-06-07 07:16:42 51°15.751 2°52.172 21.924962 5.13134 31.798148 7.983195
2004-06-07 07:16:47 51°15.748 2°52.143 21.932562 5.131446 31.798881 7.983195
2004-06-07 07:16:52 51°15.745 2°52.113 21.933389 5.13134 31.798578 7.949486
2004-06-07 07:16:57 51°15.742 2°52.083 21.901921 5.131341 31.799009 7.949486
2004-06-07 07:16:59 51°15.741 2°52.071 21.909287 5.131341 31.79987 7.983195
2004-06-07 07:17:07 51°15.737 2°52.023 21.909287 5.131341 31.79987 7.983195
2004-06-07 07:17:11 51°15.735 2°51.999 21.893057 5.131235 31.799567 7.983195
2004-06-07 07:17:17 51°15.733 2°51.964 21.879187 5.131129 31.799264 7.983195
2004-06-07 07:17:22 51°15.731 2°51.934 21.910547 5.131129 31.799264 7.949486
2004-06-07 07:17:27 51°15.729 2°51.904 21.885492 5.131129 31.799694 7.983195
2004-06-07 07:17:32 51°15.726 2°51.874 21.904324 5.131129 31.800125 7.949486
2004-06-07 07:17:37 51°15.724 2°51.844 21.904324 5.131129 31.800125 7.949486
2004-06-07 07:17:41 51°15.723 2°51.82 21.913974 5.131129 31.800125 7.983195
2004-06-07 07:17:47 51°15.72 2°51.784 21.918346 5.131024 31.799391 7.949486
2004-06-07 07:17:51 51°15.719 2°51.76 21.915352 5.131024 31.799391 7.949486
2004-06-07 07:17:56 51°15.717 2°51.73 21.906845 5.131024 31.800252 7.949486
2004-06-07 07:18:01 51°15.715 2°51.7 21.939728 5.130918 31.799949 7.949486
2004-06-07 07:18:07 51°15.713 2°51.664 21.939728 5.130918 31.799949 7.949486
2004-06-07 07:18:12 51°15.711 2°51.634 21.918818 5.130813 31.799647 7.983195
2004-06-07 07:18:17 51°15.71 2°51.604 21.935712 5.130813 31.800508 7.949486
2004-06-07 07:18:21 51°15.708 2°51.58 21.939767 5.130813 31.800508 7.949486
2004-06-07 07:18:27 51°15.706 2°51.544 21.915431 5.130813 31.800508 7.949486
2004-06-07 07:18:31 51°15.705 2°51.52 21.929254 5.130918 31.801241 7.949486
2004-06-07 07:18:35 51°15.704 2°51.495 21.929254 5.130918 31.801241 7.949486
2004-06-07 07:18:41 51°15.702 2°51.46 21.964292 5.130602 31.799041 7.949486
2004-06-07 07:18:47 51°15.699 2°51.424 21.936933 5.130602 31.799471 7.983195
2004-06-07 07:18:52 51°15.697 2°51.394 21.996441 5.130602 31.799471 7.983195
2004-06-07 07:18:57 51°15.694 2°51.364 22.088715 5.130602 31.800763 7.983195
2004-06-07 07:19:01 51°15.691 2°51.34 21.967441 5.130496 31.80046 7.949486
2004-06-07 07:19:07 51°15.686 2°51.305 21.967441 5.130496 31.80046 7.949486
2004-06-07 07:19:11 51°15.683 2°51.282 21.991838 5.130496 31.80046 7.983195
2004-06-07 07:19:16 51°15.678 2°51.253 21.978263 5.130391 31.800157 7.949486
2004-06-07 07:19:21 51°15.673 2°51.224 21.959136 5.130496 31.800891 7.983195
2004-06-07 07:19:27 51°15.667 2°51.189 21.921142 5.130496 31.80046 7.983195
2004-06-07 07:19:30 51°15.664 2°51.172 21.947602 5.130391 31.800157 7.949486
2004-06-07 07:19:37 51°15.657 2°51.131 21.947602 5.130391 31.800157 7.949486
2004-06-07 07:19:42 51°15.652 2°51.102 21.898021 5.130285 31.799424 7.949486
2004-06-07 07:19:47 51°15.647 2°51.073 21.909011 5.130496 31.801321 7.949486
2004-06-07 07:19:52 51°15.642 2°51.043 21.91484 5.130285 31.800285 7.983195
2004-06-07 07:19:57 51°15.637 2°51.014 21.976256 5.130285 31.800285 7.949486
2004-06-07 07:20:01 51°15.634 2°50.991 21.9352 5.130285 31.801146 7.949486
2004-06-07 07:20:07 51°15.628 2°50.956 21.9352 5.130285 31.801146 7.949486
2004-06-07 07:20:12 51°15.623 2°50.927 21.920512 5.130285 31.801577 7.949486
2004-06-07 07:20:15 51°15.62 2°50.91 21.961065 5.13018 31.800843 7.983195
2004-06-07 07:20:21 51°15.615 2°50.874 21.925277 5.13018 31.800843 7.949486
2004-06-07 07:20:27 51°15.609 2°50.839 21.937641 5.130074 31.800109 7.983195
2004-06-07 07:20:31 51°15.605 2°50.816 21.945004 5.129969 31.800237 7.983195
2004-06-07 07:20:37 51°15.6 2°50.781 21.945004 5.129969 31.800237 7.983195
2004-06-07 07:20:42 51°15.595 2°50.752 21.946382 5.129863 31.799504 7.983195
2004-06-07 07:20:47 51°15.59 2°50.723 21.957522 5.129969 31.801099 7.949486
2004-06-07 07:20:52 51°15.585 2°50.694 21.944925 5.129863 31.800365 7.949486
2004-06-07 07:20:57 51°15.58 2°50.664 21.989556 5.129863 31.801226 7.983195
2004-06-07 07:21:01 51°15.577 2°50.641 21.952917 5.129863 31.801226 7.983195
2004-06-07 07:21:07 51°15.57 2°50.606 21.952917 5.129863 31.801226 7.983195
2004-06-07 07:21:11 51°15.567 2°50.583 21.935279 5.129758 31.800923 7.983195
2004-06-07 07:21:17 51°15.561 2°50.548 21.923111 5.129863 31.801657 7.949486
2004-06-07 07:21:23 51°15.556 2°50.513 21.946618 5.129758 31.801354 7.983195
2004-06-07 07:21:27 51°15.552 2°50.489 21.984913 5.129652 31.80062 7.949486
2004-06-07 07:21:32 51°15.547 2°50.46 21.921614 5.129758 31.801354 7.983195
2004-06-07 07:21:37 51°15.543 2°50.43 21.921614 5.129758 31.801354 7.983195
2004-06-07 07:21:41 51°15.539 2°50.407 21.951932 5.129652 31.801051 7.983195
2004-06-07 07:21:47 51°15.533 2°50.372 21.949846 5.129547 31.800748 7.983195
2004-06-07 07:21:51 51°15.53 2°50.349 21.968503 5.129547 31.80161 7.949486
2004-06-07 07:21:57 51°15.524 2°50.313 21.944334 5.129547 31.801179 7.983195
2004-06-07 07:22:02 51°15.519 2°50.284 21.966142 5.129336 31.801004 7.949486
2004-06-07 07:22:07 51°15.515 2°50.255 21.966142 5.129336 31.801004 7.949486
2004-06-07 07:22:12 51°15.511 2°50.225 21.920906 5.129441 31.801307 7.949486
2004-06-07 07:22:17 51°15.507 2°50.195 21.955593 5.129441 31.801738 7.949486
2004-06-07 07:22:22 51°15.504 2°50.166 21.953468 5.129336 31.801004 7.983195
2004-06-07 07:22:27 51°15.5 2°50.136 22.004781 5.12923 31.800701 7.983195
2004-06-07 07:22:31 51°15.497 2°50.112 21.974721 5.129125 31.800398 7.983195
2004-06-07 07:22:37 51°15.493 2°50.077 21.974721 5.129125 31.800398 7.983195
2004-06-07 07:22:39 51°15.491 2°50.065 21.969409 5.12923 31.801132 7.949486
2004-06-07 07:22:47 51°15.485 2°50.018 22.005568 5.129125 31.80169 7.949486
2004-06-07 07:22:51 51°15.482 2°49.994 22.011153 5.129019 31.801387 7.983195
2004-06-07 07:22:57 51°15.477 2°49.958 21.94024 5.129125 31.80169 7.983195
2004-06-07 07:23:02 51°15.474 2°49.929 21.9626 5.129019 31.801387 7.949486
2004-06-07 07:23:07 51°15.47 2°49.899 21.9626 5.129019 31.801387 7.949486
2004-06-07 07:23:12 51°15.466 2°49.869 21.981647 5.129019 31.801818 7.983195
2004-06-07 07:23:17 51°15.462 2°49.839 21.969566 5.128914 31.801084 7.983195
2004-06-07 07:23:21 51°15.459 2°49.816 21.984559 5.128808 31.80035 7.949486
2004-06-07 07:23:27 51°15.455 2°49.78 21.993058 5.128808 31.801643 7.949486
2004-06-07 07:23:31 51°15.452 2°49.757 21.967598 5.128703 31.800478 7.983195
2004-06-07 07:23:37 51°15.447 2°49.721 21.967598 5.128703 31.800478 7.983195
2004-06-07 07:23:41 51°15.444 2°49.697 21.974879 5.128703 31.80134 7.983195
2004-06-07 07:23:47 51°15.439 2°49.662 21.969369 5.128808 31.801643 7.983195
2004-06-07 07:23:51 51°15.436 2°49.638 21.973187 5.128492 31.800303 7.983195
2004-06-07 07:23:57 51°15.432 2°49.602 21.968346 5.128703 31.801771 7.983195
2004-06-07 07:24:02 51°15.428 2°49.572 21.991169 5.128492 31.800734 7.949486
2004-06-07 07:24:07 51°15.425 2°49.542 21.991169 5.128492 31.800734 7.949486
2004-06-07 07:24:12 51°15.421 2°49.513 21.982238 5.128597 31.801468 7.983195
2004-06-07 07:24:17 51°15.417 2°49.483 21.974407 5.128597 31.801899 7.949486
2004-06-07 07:24:22 51°15.413 2°49.453 21.96933 5.128492 31.801165 7.949486
2004-06-07 07:24:27 51°15.409 2°49.424 21.974721 5.128281 31.800559 7.949486
2004-06-07 07:24:31 51°15.406 2°49.4 21.994749 5.128386 31.801293 7.949486
2004-06-07 07:24:37 51°15.402 2°49.364 21.994749 5.128386 31.801293 7.949486
2004-06-07 07:24:42 51°15.398 2°49.335 21.993766 5.128386 31.801724 7.983195
2004-06-07 07:24:47 51°15.395 2°49.305 21.991917 5.128175 31.800687 7.949486
2004-06-07 07:24:51 51°15.392 2°49.281 21.98271 5.128281 31.801852 7.983195
2004-06-07 07:24:57 51°15.387 2°49.245 21.991995 5.128175 31.801549 7.949486
2004-06-07 07:25:02 51°15.383 2°49.216 21.994985 5.12807 31.801246 7.983195
2004-06-07 07:25:07 51°15.38 2°49.186 21.994985 5.12807 31.801246 7.983195
2004-06-07 07:25:11 51°15.377 2°49.162 21.975745 5.127964 31.800512 7.949486
2004-06-07 07:25:17 51°15.372 2°49.127 22.006197 5.127858 31.800209 7.949486
2004-06-07 07:25:21 51°15.369 2°49.103 21.978657 5.127964 31.800943 7.983195
2004-06-07 07:25:27 51°15.364 2°49.068 21.996205 5.12807 31.802108 7.949486
2004-06-07 07:25:31 51°15.361 2°49.044 22.000218 5.127858 31.801071 7.983195
2004-06-07 07:25:36 51°15.357 2°49.014 22.000218 5.127858 31.801071 7.983195
2004-06-07 07:25:40 51°15.354 2°48.99 21.988612 5.127858 31.801071 7.949486
2004-06-07 07:25:47 51°15.349 2°48.948 21.981018 5.127753 31.801199 7.983195
2004-06-07 07:25:52 51°15.345 2°48.919 21.994749 5.127753 31.80163 7.949486
2004-06-07 07:25:57 51°15.341 2°48.889 21.979011 5.127647 31.800896 7.949486
2004-06-07 07:26:01 51°15.338 2°48.865 22.008911 5.127753 31.80163 7.949486
2004-06-07 07:26:07 51°15.334 2°48.829 22.008911 5.127753 31.80163 7.949486
2004-06-07 07:26:12 51°15.33 2°48.799 22.025784 5.127542 31.800593 7.983195
2004-06-07 07:26:17 51°15.326 2°48.77 22.008046 5.127647 31.802189 7.983195
2004-06-07 07:26:21 51°15.323 2°48.746 22.011546 5.127542 31.801886 7.983195
2004-06-07 07:26:27 51°15.318 2°48.71 22.003247 5.127542 31.802317 7.983195
2004-06-07 07:26:31 51°15.315 2°48.686 22.01131 5.127542 31.802748 7.983195
2004-06-07 07:26:37 51°15.31 2°48.651 22.01131 5.127542 31.802748 7.983195
2004-06-07 07:26:42 51°15.306 2°48.621 22.001477 5.127436 31.802014 7.949486
2004-06-07 07:26:47 51°15.302 2°48.591 21.997661 5.127225 31.800546 7.983195
2004-06-07 07:26:51 51°15.298 2°48.567 21.990068 5.127331 31.801711 7.949486
2004-06-07 07:26:57 51°15.294 2°48.531 22.024171 5.127225 31.800977 7.983195
2004-06-07 07:27:02 51°15.29 2°48.502 22.013788 5.127331 31.802573 7.983195
2004-06-07 07:27:07 51°15.286 2°48.472 22.013788 5.127331 31.802573 7.983195
2004-06-07 07:27:11 51°15.283 2°48.448 21.998683 5.127331 31.802573 7.949486
2004-06-07 07:27:17 51°15.278 2°48.412 22.011389 5.127225 31.80227 7.949486
2004-06-07 07:27:21 51°15.275 2°48.388 22.011468 5.12712 31.801536 7.983195
2004-06-07 07:27:27 51°15.27 2°48.352 22.004584 5.12712 31.801967 7.949486
2004-06-07 07:27:32 51°15.266 2°48.323 22.036912 5.126909 31.801361 7.983195
2004-06-07 07:27:37 51°15.262 2°48.293 22.036912 5.126909 31.801361 7.983195
2004-06-07 07:27:42 51°15.258 2°48.263 22.021536 5.126909 31.801361 7.949486
2004-06-07 07:27:47 51°15.254 2°48.233 22.00895 5.126909 31.801361 7.949486
2004-06-07 07:27:51 51°15.251 2°48.209 22.010012 5.126909 31.801792 7.949486
2004-06-07 07:27:57 51°15.246 2°48.174 22.007102 5.126803 31.801489 7.915777
2004-06-07 07:28:01 51°15.243 2°48.15 22.005646 5.126698 31.801186 7.949486
2004-06-07 07:28:07 51°15.238 2°48.114 22.005646 5.126698 31.801186 7.949486
2004-06-07 07:28:11 51°15.235 2°48.09 22.030856 5.126803 31.802351 7.949486
2004-06-07 07:28:17 51°15.231 2°48.054 22.039546 5.126592 31.801745 7.983195
2004-06-07 07:28:21 51°15.227 2°48.031 22.0559 5.126592 31.802176 7.949486
2004-06-07 07:28:27 51°15.222 2°47.995 21.991248 5.126592 31.801745 7.949486
2004-06-07 07:28:31 51°15.219 2°47.971 22.005646 5.126592 31.801745 7.983195
2004-06-07 07:28:37 51°15.214 2°47.936 22.005646 5.126592 31.801745 7.983195
2004-06-07 07:28:41 51°15.212 2°47.912 22.021458 5.126487 31.801442 7.949486
2004-06-07 07:28:47 51°15.207 2°47.876 22.018941 5.126381 31.80157 7.949486
2004-06-07 07:28:52 51°15.203 2°47.846 22.028064 5.126487 31.802304 7.983195
2004-06-07 07:28:55 51°15.201 2°47.828 22.045836 5.126276 31.801267 7.949486
2004-06-07 07:29:00 51°15.197 2°47.799 22.003955 5.126381 31.80157 7.949486
2004-06-07 07:29:07 51°15.191 2°47.757 22.003955 5.126381 31.80157 7.949486
2004-06-07 07:29:11 51°15.188 2°47.733 22.015558 5.126276 31.801698 7.949486
2004-06-07 07:29:17 51°15.184 2°47.698 22.009776 5.126276 31.802129 7.949486
2004-06-07 07:29:22 51°15.18 2°47.668 21.978578 5.126276 31.802561 7.949486
2004-06-07 07:29:27 51°15.177 2°47.638 22.070207 5.126065 31.801092 7.949486
2004-06-07 07:29:31 51°15.174 2°47.614 22.035378 5.126065 31.801092 7.949486
2004-06-07 07:29:37 51°15.169 2°47.578 22.035378 5.126065 31.801092 7.949486
2004-06-07 07:29:41 51°15.166 2°47.554 22.04163 5.126065 31.801954 7.949486
2004-06-07 07:29:47 51°15.162 2°47.518 22.069971 5.126065 31.802386 7.983195
2004-06-07 07:29:51 51°15.158 2°47.495 22.039231 5.125854 31.801348 7.949486
2004-06-07 07:29:57 51°15.154 2°47.459 22.03294 5.125854 31.801348 7.983195
2004-06-07 07:30:02 51°15.149 2°47.429 22.048156 5.125959 31.802514 7.983195
2004-06-07 07:30:07 51°15.145 2°47.399 22.048156 5.125959 31.802514 7.983195
2004-06-07 07:30:12 51°15.141 2°47.37 22.036636 5.125643 31.79988 7.983195
2004-06-07 07:30:16 51°15.138 2°47.346 22.028811 5.125748 31.801477 7.949486
2004-06-07 07:30:21 51°15.134 2°47.316 22.039939 5.125748 31.801477 7.949486
2004-06-07 07:30:27 51°15.13 2°47.28 22.014457 5.125643 31.801174 7.949486
2004-06-07 07:30:32 51°15.126 2°47.25 22.03471 5.125432 31.800136 7.949486
2004-06-07 07:30:37 51°15.122 2°47.22 22.03471 5.125432 31.800136 7.949486
2004-06-07 07:30:41 51°15.119 2°47.195 22.004899 5.125537 31.801302 7.983195
2004-06-07 07:30:47 51°15.115 2°47.159 22.053581 5.125537 31.801733 7.983195
2004-06-07 07:30:52 51°15.111 2°47.129 22.069185 5.125432 31.800999 7.915777
2004-06-07 07:30:57 51°15.108 2°47.099 22.053502 5.125326 31.800264 7.983195
2004-06-07 07:31:01 51°15.105 2°47.075 22.075669 5.125326 31.801558 7.949486
2004-06-07 07:31:07 51°15.1 2°47.039 22.075669 5.125326 31.801558 7.949486
2004-06-07 07:31:11 51°15.096 2°47.015 22.058887 5.125326 31.801558 7.949486
2004-06-07 07:31:17 51°15.091 2°46.979 22.075355 5.125221 31.801255 7.983195
2004-06-07 07:31:22 51°15.087 2°46.949 22.054367 5.125115 31.800521 7.949486
2004-06-07 07:31:27 51°15.082 2°46.919 22.067731 5.125115 31.800952 7.949486
2004-06-07 07:31:31 51°15.078 2°46.895 22.031485 5.125115 31.800952 7.983195
2004-06-07 07:31:37 51°15.073 2°46.859 22.031485 5.125115 31.800952 7.983195
2004-06-07 07:31:42 51°15.069 2°46.829 22.042691 5.125009 31.800649 7.983195
2004-06-07 07:31:47 51°15.065 2°46.799 22.021182 5.125009 31.800649 7.983195
2004-06-07 07:31:51 51°15.061 2°46.775 22.083253 5.124904 31.800777 7.949486
2004-06-07 07:31:57 51°15.056 2°46.738 22.028851 5.124904 31.800777 7.949486
2004-06-07 07:32:01 51°15.053 2°46.714 22.067338 5.124798 31.800474 7.983195
2004-06-07 07:32:07 51°15.048 2°46.678 22.067338 5.124798 31.800474 7.983195
2004-06-07 07:32:11 51°15.044 2°46.654 22.035457 5.124904 31.801209 7.949486
2004-06-07 07:32:16 51°15.04 2°46.624 22.071818 5.124693 31.800602 7.949486
2004-06-07 07:32:20 51°15.037 2°46.6 22.051144 5.124693 31.800602 7.949486
2004-06-07 07:32:27 51°15.031 2°46.558 22.070364 5.124587 31.799868 7.949486
2004-06-07 07:32:31 51°15.027 2°46.533 22.04906 5.124693 31.801034 7.949486
2004-06-07 07:32:37 51°15.022 2°46.497 22.04906 5.124693 31.801034 7.949486
2004-06-07 07:32:42 51°15.018 2°46.467 22.074648 5.124482 31.799996 7.949486
2004-06-07 07:32:47 51°15.014 2°46.437 22.077202 5.124482 31.799996 7.949486
2004-06-07 07:32:51 51°15.01 2°46.413 22.064508 5.124482 31.800859 7.949486
2004-06-07 07:32:57 51°15.005 2°46.377 22.048824 5.124376 31.800556 7.949486
2004-06-07 07:33:01 51°15.001 2°46.353 22.041512 5.124376 31.800987 7.949486
2004-06-07 07:33:07 51°14.997 2°46.317 22.041512 5.124376 31.800987 7.949486
2004-06-07 07:33:12 51°14.992 2°46.287 22.09009 5.124376 31.800987 7.983195
2004-06-07 07:33:17 51°14.988 2°46.256 22.060342 5.124376 31.801419 7.949486
2004-06-07 07:33:22 51°14.983 2°46.226 22.074962 5.124165 31.800812 7.949486
2004-06-07 07:33:27 51°14.979 2°46.196 22.05535 5.124165 31.800812 7.949486
2004-06-07 07:33:31 51°14.976 2°46.172 22.069578 5.124165 31.800812 7.983195
2004-06-07 07:33:37 51°14.97 2°46.136 22.069578 5.124165 31.800812 7.983195
2004-06-07 07:33:41 51°14.967 2°46.112 22.038406 5.12406 31.800509 7.983195
2004-06-07 07:33:47 51°14.962 2°46.076 22.068281 5.12406 31.800941 7.983195
2004-06-07 07:33:52 51°14.957 2°46.045 22.079324 5.12406 31.801372 7.983195
2004-06-07 07:33:55 51°14.955 2°46.027 22.062897 5.123954 31.801069 7.949486
2004-06-07 07:34:01 51°14.949 2°45.991 22.031092 5.123954 31.801069 7.949486
2004-06-07 07:34:07 51°14.944 2°45.955 22.031092 5.123954 31.801069 7.949486
2004-06-07 07:34:12 51°14.94 2°45.925 22.06046 5.123849 31.800766 7.983195
2004-06-07 07:34:17 51°14.936 2°45.895 22.069067 5.123849 31.801197 7.949486
2004-06-07 07:34:22 51°14.931 2°45.865 22.073272 5.123638 31.80016 7.983195
2004-06-07 07:34:27 51°14.927 2°45.835 22.087026 5.123743 31.800894 7.983195
2004-06-07 07:34:32 51°14.922 2°45.805 22.075866 5.123638 31.800591 7.949486
2004-06-07 07:34:35 51°14.92 2°45.787 22.075866 5.123638 31.800591 7.949486
2004-06-07 07:34:41 51°14.914 2°45.751 22.127877 5.123532 31.80072 7.983195
2004-06-07 07:34:47 51°14.908 2°45.715 22.098851 5.123638 31.801454 7.983195
2004-06-07 07:34:51 51°14.905 2°45.691 22.072368 5.123532 31.801151 7.949486
2004-06-07 07:34:57 51°14.899 2°45.655 22.067495 5.123427 31.800848 7.983195
2004-06-07 07:34:59 51°14.897 2°45.643 22.034317 5.123532 31.80072 7.949486
2004-06-07 07:35:07 51°14.89 2°45.595 22.034317 5.123532 31.80072 7.949486
2004-06-07 07:35:12 51°14.886 2°45.565 22.082035 5.123427 31.80128 7.949486
2004-06-07 07:35:16 51°14.883 2°45.541 22.060971 5.123532 31.802014 7.949486
2004-06-07 07:35:21 51°14.878 2°45.511 22.101601 5.123321 31.800976 7.949486
2004-06-07 07:35:27 51°14.873 2°45.474 22.082507 5.123321 31.801408 7.949486
2004-06-07 07:35:32 51°14.868 2°45.444 22.102072 5.12311 31.800802 7.949486
2004-06-07 07:35:37 51°14.864 2°45.414 22.102072 5.12311 31.800802 7.949486
2004-06-07 07:35:42 51°14.859 2°45.384 22.093469 5.123216 31.801536 7.983195
2004-06-07 07:35:47 51°14.855 2°45.354 22.061442 5.123216 31.801968 7.949486
2004-06-07 07:35:52 51°14.85 2°45.324 22.09948 5.12311 31.801233 7.949486
2004-06-07 07:35:57 51°14.846 2°45.294 22.065373 5.12311 31.801233 7.949486
2004-06-07 07:36:02 51°14.842 2°45.263 22.075041 5.122899 31.800196 7.949486
2004-06-07 07:36:07 51°14.837 2°45.233 22.075041 5.122899 31.800196 7.949486
2004-06-07 07:36:12 51°14.833 2°45.203 22.086083 5.122899 31.800627 7.915777
2004-06-07 07:36:17 51°14.829 2°45.173 22.117077 5.122794 31.800324 7.949486
2004-06-07 07:36:21 51°14.825 2°45.149 22.108829 5.122794 31.801187 7.949486
2004-06-07 07:36:27 51°14.82 2°45.112 22.095708 5.122794 31.801187 7.949486
2004-06-07 07:36:32 51°14.815 2°45.082 22.080503 5.122794 31.801619 7.983195
2004-06-07 07:36:37 51°14.811 2°45.052 22.080503 5.122794 31.801619 7.983195
2004-06-07 07:36:41 51°14.807 2°45.028 22.093548 5.122688 31.801316 7.983195
2004-06-07 07:36:47 51°14.802 2°44.992 22.073901 5.122583 31.801012 7.949486
2004-06-07 07:36:51 51°14.798 2°44.968 22.104862 5.122583 31.801012 7.983195
2004-06-07 07:36:57 51°14.792 2°44.932 22.111971 5.122477 31.800709 7.949486
2004-06-07 07:37:02 51°14.788 2°44.902 22.08565 5.122583 31.801444 7.983195
2004-06-07 07:37:07 51°14.783 2°44.872 22.08565 5.122583 31.801444 7.983195
2004-06-07 07:37:11 51°14.779 2°44.847 22.090012 5.122372 31.800406 7.983195
2004-06-07 07:37:17 51°14.774 2°44.811 22.070521 5.122477 31.801573 7.949486
2004-06-07 07:37:22 51°14.769 2°44.781 22.090955 5.122477 31.802004 7.949486
2004-06-07 07:37:27 51°14.764 2°44.751 22.098851 5.122266 31.800966 7.983195
2004-06-07 07:37:31 51°14.761 2°44.727 22.085965 5.122266 31.800966 7.949486
2004-06-07 07:37:37 51°14.755 2°44.691 22.085965 5.122266 31.800966 7.949486
2004-06-07 07:37:41 51°14.751 2°44.666 22.10384 5.122161 31.800663 7.983195
2004-06-07 07:37:47 51°14.746 2°44.63 22.133256 5.122055 31.800792 7.915777
2004-06-07 07:37:52 51°14.741 2°44.6 22.084786 5.122161 31.801527 7.949486
2004-06-07 07:37:57 51°14.736 2°44.57 22.095708 5.122055 31.800792 7.949486
2004-06-07 07:38:02 51°14.731 2°44.539 22.121436 5.121949 31.800489 7.983195
2004-06-07 07:38:07 51°14.726 2°44.509 22.121436 5.121949 31.800489 7.983195
2004-06-07 07:38:12 51°14.721 2°44.479 22.104469 5.122055 31.801223 7.983195
2004-06-07 07:38:17 51°14.717 2°44.448 22.124068 5.121844 31.801049 7.949486
2004-06-07 07:38:22 51°14.712 2°44.418 22.094726 5.121738 31.799882 7.983195
2004-06-07 07:38:27 51°14.708 2°44.387 22.111893 5.121738 31.800746 7.983195
2004-06-07 07:38:32 51°14.703 2°44.357 22.118452 5.121633 31.800011 7.949486
2004-06-07 07:38:37 51°14.698 2°44.327 22.118452 5.121633 31.800011 7.949486
2004-06-07 07:38:40 51°14.695 2°44.309 22.116134 5.121738 31.801177 7.949486
2004-06-07 07:38:47 51°14.689 2°44.266 22.133178 5.121527 31.800571 7.949486
2004-06-07 07:38:52 51°14.684 2°44.235 22.128034 5.121527 31.801003 7.949486
2004-06-07 07:38:57 51°14.679 2°44.205 22.133099 5.121527 31.801003 7.983195
2004-06-07 07:39:01 51°14.675 2°44.181 22.109536 5.121527 31.801435 7.983195
2004-06-07 07:39:07 51°14.669 2°44.145 22.109536 5.121527 31.801435 7.983195
2004-06-07 07:39:12 51°14.665 2°44.114 22.117352 5.121422 31.800268 7.949486
2004-06-07 07:39:15 51°14.662 2°44.096 22.128034 5.121316 31.800397 7.949486
2004-06-07 07:39:21 51°14.656 2°44.06 22.106747 5.121316 31.800828 7.983195
2004-06-07 07:39:27 51°14.65 2°44.023 22.125953 5.121316 31.80126 7.949486
2004-06-07 07:39:31 51°14.646 2°43.999 22.110439 5.121105 31.800222 7.949486
2004-06-07 07:39:37 51°14.641 2°43.963 22.110439 5.121105 31.800222 7.949486
2004-06-07 07:39:42 51°14.636 2°43.933 22.119041 5.121211 31.801389 7.983195
2004-06-07 07:39:47 51°14.631 2°43.902 22.104979 5.121105 31.800654 7.983195
2004-06-07 07:39:52 51°14.627 2°43.872 22.124421 5.121 31.800351 7.983195
2004-06-07 07:39:57 51°14.622 2°43.842 22.16007 5.120894 31.800048 7.983195
2004-06-07 07:40:02 51°14.617 2°43.811 22.150335 5.121 31.801646 7.949486
2004-06-07 07:40:07 51°14.612 2°43.781 22.150335 5.121 31.801646 7.949486
2004-06-07 07:40:11 51°14.608 2°43.757 22.134788 5.121 31.802078 7.983195
2004-06-07 07:40:17 51°14.603 2°43.72 22.129173 5.120789 31.800176 7.949486
2004-06-07 07:40:21 51°14.599 2°43.696 22.135926 5.120789 31.80104 7.983195
2004-06-07 07:40:27 51°14.593 2°43.66 22.128662 5.120789 31.80104 7.949486
2004-06-07 07:40:31 51°14.59 2°43.635 22.121986 5.120789 31.801472 7.983195
2004-06-07 07:40:37 51°14.584 2°43.599 22.121986 5.120789 31.801472 7.983195
2004-06-07 07:40:42 51°14.579 2°43.569 22.142837 5.120683 31.8016 7.949486
2004-06-07 07:40:47 51°14.574 2°43.539 22.14001 5.120472 31.800562 7.949486
2004-06-07 07:40:51 51°14.57 2°43.515 22.134709 5.120578 31.801297 7.949486
2004-06-07 07:40:57 51°14.565 2°43.479 22.125442 5.120472 31.800562 7.983195
2004-06-07 07:41:02 51°14.56 2°43.449 22.135612 5.120261 31.799956 7.949486
2004-06-07 07:41:07 51°14.555 2°43.419 22.135612 5.120261 31.799956 7.949486
2004-06-07 07:41:12 51°14.55 2°43.389 22.115742 5.120367 31.801123 7.949486
2004-06-07 07:41:17 51°14.546 2°43.359 22.148294 5.120156 31.799653 7.983195
2004-06-07 07:41:21 51°14.542 2°43.335 22.142994 5.120367 31.801555 7.949486
2004-06-07 07:41:27 51°14.536 2°43.299 22.127602 5.120156 31.800085 7.949486
2004-06-07 07:41:31 51°14.532 2°43.275 22.139931 5.12005 31.800645 7.949486
2004-06-07 07:41:37 51°14.527 2°43.239 22.139931 5.12005 31.800645 7.949486
2004-06-07 07:41:42 51°14.522 2°43.209 22.132432 5.12005 31.800213 7.983195
2004-06-07 07:41:47 51°14.518 2°43.179 22.169607 5.12005 31.800645 7.949486
2004-06-07 07:41:52 51°14.513 2°43.149 22.149079 5.119945 31.800774 7.915777
2004-06-07 07:41:57 51°14.509 2°43.119 22.17569 5.119839 31.800039 7.983195
2004-06-07 07:42:01 51°14.505 2°43.095 22.144917 5.119839 31.800903 7.983195
2004-06-07 07:42:07 51°14.499 2°43.059 22.144917 5.119839 31.800903 7.983195
2004-06-07 07:42:11 51°14.496 2°43.035 22.133845 5.119734 31.800599 7.983195
2004-06-07 07:42:17 51°14.49 2°42.999 22.140677 5.119734 31.800599 7.949486
2004-06-07 07:42:21 51°14.487 2°42.975 22.143072 5.119628 31.800296 7.949486
2004-06-07 07:42:27 51°14.482 2°42.939 22.13895 5.119628 31.800728 7.983195
2004-06-07 07:42:31 51°14.478 2°42.915 22.168077 5.119523 31.799993 7.949486
2004-06-07 07:42:37 51°14.473 2°42.878 22.168077 5.119523 31.799993 7.949486
2004-06-07 07:42:42 51°14.468 2°42.848 22.152651 5.119523 31.800425 7.983195
2004-06-07 07:42:47 51°14.463 2°42.818 22.142601 5.119417 31.800554 7.949486
2004-06-07 07:42:52 51°14.459 2°42.787 22.150767 5.119417 31.800122 7.983195
2004-06-07 07:42:57 51°14.455 2°42.757 22.150767 5.119312 31.800251 7.915777
2004-06-07 07:43:01 51°14.451 2°42.732 22.157087 5.119312 31.800683 7.949486
2004-06-07 07:43:07 51°14.446 2°42.696 22.157087 5.119312 31.800683 7.949486
2004-06-07 07:43:11 51°14.442 2°42.671 22.163799 5.119417 31.801418 7.949486
2004-06-07 07:43:17 51°14.437 2°42.635 22.156733 5.119312 31.801115 7.983195
2004-06-07 07:43:21 51°14.433 2°42.61 22.156459 5.119101 31.800508 7.983195
2004-06-07 07:43:27 51°14.428 2°42.574 22.147744 5.119101 31.80094 7.915777
2004-06-07 07:43:32 51°14.423 2°42.543 22.14692 5.118889 31.799038 7.949486
2004-06-07 07:43:37 51°14.419 2°42.513 22.14692 5.118889 31.799038 7.949486
2004-06-07 07:43:42 51°14.415 2°42.482 22.153907 5.118995 31.800637 7.949486
2004-06-07 07:43:47 51°14.41 2°42.452 22.15799 5.118889 31.799902 7.949486
2004-06-07 07:43:52 51°14.406 2°42.421 22.147587 5.118784 31.799599 7.915777
2004-06-07 07:43:57 51°14.402 2°42.391 22.16007 5.118889 31.801198 7.949486
2004-06-07 07:44:01 51°14.398 2°42.366 22.170549 5.118678 31.800159 7.949486
2004-06-07 07:44:07 51°14.392 2°42.33 22.170549 5.118678 31.800159 7.949486
2004-06-07 07:44:12 51°14.388 2°42.299 22.151238 5.118678 31.800592 7.983195
2004-06-07 07:44:17 51°14.384 2°42.269 22.161993 5.118467 31.799121 7.983195
2004-06-07 07:44:21 51°14.38 2°42.245 22.149314 5.118678 31.801024 7.949486
2004-06-07 07:44:27 51°14.375 2°42.208 22.190012 5.118362 31.79925 7.949486
2004-06-07 07:44:32 51°14.371 2°42.177 22.183695 5.118678 31.801888 7.983195
2004-06-07 07:44:37 51°14.367 2°42.147 22.183695 5.118678 31.801888 7.983195
2004-06-07 07:44:41 51°14.363 2°42.122 22.172943 5.118362 31.799682 7.949486
2004-06-07 07:44:47 51°14.358 2°42.086 22.166939 5.118256 31.799811 7.949486
2004-06-07 07:44:51 51°14.354 2°42.062 22.188678 5.118362 31.800978 7.949486
2004-06-07 07:44:57 51°14.349 2°42.025 22.172865 5.118256 31.800243 7.949486
2004-06-07 07:45:01 51°14.346 2°42.001 22.169333 5.118256 31.800675 7.983195
2004-06-07 07:45:07 51°14.34 2°41.964 22.169333 5.118256 31.800675 7.983195
2004-06-07 07:45:11 51°14.337 2°41.94 22.186363 5.118151 31.800372 7.949486
2004-06-07 07:45:17 51°14.332 2°41.903 22.141148 5.118151 31.800372 7.949486
2004-06-07 07:45:21 51°14.329 2°41.879 22.16584 5.118151 31.801236 7.983195
2004-06-07 07:45:27 51°14.325 2°41.842 22.168077 5.118045 31.800069 7.949486
2004-06-07 07:45:31 51°14.322 2°41.818 22.181145 5.117834 31.799894 8.016905
2004-06-07 07:45:37 51°14.318 2°41.781 22.181145 5.117834 31.799894 8.016905
2004-06-07 07:45:42 51°14.314 2°41.75 22.175769 5.11794 31.801062 7.983195
2004-06-07 07:45:47 51°14.311 2°41.72 22.178005 5.117834 31.800326 7.983195
2004-06-07 07:45:51 51°14.308 2°41.695 22.180399 5.117623 31.798856 7.949486
2004-06-07 07:45:57 51°14.304 2°41.658 22.175533 5.117729 31.800455 7.983195
2004-06-07 07:46:01 51°14.301 2°41.634 22.189306 5.117834 31.801191 7.949486
2004-06-07 07:46:07 51°14.297 2°41.597 22.189306 5.117834 31.801191 7.949486
2004-06-07 07:46:11 51°14.294 2°41.573 22.186991 5.117518 31.799849 7.949486
2004-06-07 07:46:17 51°14.289 2°41.536 22.215432 5.117412 31.799546 7.983195
2004-06-07 07:46:22 51°14.285 2°41.505 22.198683 5.117412 31.799546 7.949486
2004-06-07 07:46:27 51°14.282 2°41.475 22.206607 5.117412 31.799978 7.949486
2004-06-07 07:46:31 51°14.279 2°41.45 22.189149 5.117307 31.799242 7.983195
2004-06-07 07:46:37 51°14.274 2°41.414 22.189149 5.117307 31.799242 7.983195
2004-06-07 07:46:42 51°14.271 2°41.383 22.179065 5.117307 31.799675 7.949486
2004-06-07 07:46:47 51°14.268 2°41.352 22.199153 5.117201 31.799371 7.949486
2004-06-07 07:46:52 51°14.264 2°41.322 22.189698 5.117201 31.800236 7.949486
2004-06-07 07:46:57 51°14.261 2°41.291 22.187854 5.117096 31.7995 7.949486
2004-06-07 07:47:01 51°14.258 2°41.266 22.188914 5.117201 31.8011 7.949486
2004-06-07 07:47:07 51°14.254 2°41.229 22.188914 5.117201 31.8011 7.949486
2004-06-07 07:47:12 51°14.251 2°41.198 22.181066 5.116885 31.798894 7.983195
2004-06-07 07:47:17 51°14.248 2°41.167 22.173689 5.11699 31.799629 7.949486
2004-06-07 07:47:22 51°14.246 2°41.136 22.231981 5.11699 31.800062 7.949486
2004-06-07 07:47:27 51°14.243 2°41.105 22.179457 5.116885 31.799326 7.983195
2004-06-07 07:47:31 51°14.241 2°41.081 22.210686 5.116779 31.799887 7.983195
2004-06-07 07:47:37 51°14.237 2°41.043 22.210686 5.116779 31.799887 7.983195
2004-06-07 07:47:42 51°14.234 2°41.013 22.185696 5.116779 31.799887 7.949486
2004-06-07 07:47:47 51°14.232 2°40.982 22.198526 5.116779 31.80032 7.949486
2004-06-07 07:47:52 51°14.229 2°40.951 22.210764 5.116674 31.800449 7.949486
2004-06-07 07:47:57 51°14.226 2°40.92 22.225511 5.116568 31.800145 7.949486
2004-06-07 07:48:01 51°14.223 2°40.895 22.189463 5.116463 31.799842 7.983195
2004-06-07 07:48:07 51°14.22 2°40.858 22.189463 5.116463 31.799842 7.983195
2004-06-07 07:48:12 51°14.217 2°40.827 22.171609 5.116463 31.799842 7.949486
2004-06-07 07:48:15 51°14.215 2°40.808 22.200369 5.116357 31.799971 7.983195
2004-06-07 07:48:21 51°14.212 2°40.771 22.217079 5.116252 31.798803 7.983195
2004-06-07 07:48:27 51°14.209 2°40.734 22.182753 5.116463 31.800707 7.983195
2004-06-07 07:48:32 51°14.206 2°40.703 22.158618 5.116674 31.800016 7.949486
2004-06-07 07:48:37 51°14.203 2°40.672 22.158618 5.116674 31.800016 7.949486
2004-06-07 07:48:41 51°14.201 2°40.647 18.173387 5.085549 31.896167 18.500529
2004-06-07 07:48:47 51°14.197 2°40.61 17.300839 2.426344 14.022251 21.332118
2004-06-07 07:48:52 51°14.194 2°40.58 16.933485 3.551193 21.554129 24.837896
2004-06-07 07:48:57 51°14.192 2°40.549 16.727866 4.664907 30.910606 15.197007
2004-06-07 07:49:02 51°14.189 2°40.518 16.588134 4.50777 31.73273 11.151879
2004-06-07 07:49:07 51°14.187 2°40.487 16.588134 4.50777 31.73273 11.151879
2004-06-07 07:49:11 51°14.185 2°40.462 16.600416 4.40485 32.231791 13.241862
2004-06-07 07:49:17 51°14.183 2°40.425 16.506354 4.342111 32.511962 12.365418
2004-06-07 07:49:21 51°14.181 2°40.4 16.495587 4.339906 33.011671 11.151879
2004-06-07 07:49:27 51°14.179 2°40.362 16.465534 4.318397 33.170753 10.106888
2004-06-07 07:49:31 51°14.178 2°40.338 16.430185 4.280645 33.023524 9.39899
2004-06-07 07:49:37 51°14.176 2°40.301 16.430185 4.280645 33.023524 9.39899
2004-06-07 07:49:41 51°14.175 2°40.276 16.434402 4.210836 32.511208 9.297862
2004-06-07 07:49:47 51°14.173 2°40.239 16.463107 4.27295 33.119842 8.82593
2004-06-07 07:49:52 51°14.171 2°40.208 16.401381 4.262194 33.084793 8.657383
2004-06-07 07:49:57 51°14.169 2°40.177 16.421792 4.253231 33.067066 8.623674
2004-06-07 07:50:02 51°14.167 2°40.146 16.369496 4.248381 33.043141 8.589965
2004-06-07 07:50:07 51°14.166 2°40.115 16.369496 4.248381 33.043141 8.589965
2004-06-07 07:50:11 51°14.165 2°40.09 16.36408 4.244901 33.030508 8.488836
2004-06-07 07:50:17 51°14.163 2°40.053 16.373887 4.240051 33.010804 8.455127
2004-06-07 07:50:21 51°14.161 2°40.028 16.356618 4.243215 33.072409 8.421418
2004-06-07 07:50:27 51°14.159 2°39.991 16.36715 4.253655 33.181068 8.353999
2004-06-07 07:50:31 51°14.157 2°39.967 16.384971 4.256081 33.215071 8.353999
2004-06-07 07:50:37 51°14.154 2°39.93 16.384971 4.256081 33.215071 8.353999
2004-06-07 07:50:42 51°14.151 2°39.899 16.381817 4.255026 33.213841 8.28658
2004-06-07 07:50:47 51°14.149 2°39.869 16.392601 4.265572 33.323673 8.353999
2004-06-07 07:50:52 51°14.147 2°39.838 16.39729 4.269369 33.355588 8.28658
2004-06-07 07:50:57 51°14.145 2°39.807 16.378662 4.25587 33.242057 8.252871
2004-06-07 07:51:01 51°14.144 2°39.783 16.375294 4.243848 33.132263 8.185452
2004-06-07 07:51:07 51°14.142 2°39.746 16.375294 4.243848 33.132263 8.185452
2004-06-07 07:51:11 51°14.14 2°39.722 16.345486 4.251758 33.199421 8.084324
2004-06-07 07:51:17 51°14.137 2°39.685 16.315452 4.278965 33.431987 8.016905
2004-06-07 07:51:21 51°14.136 2°39.66 16.312934 4.240579 33.108029 7.915777
2004-06-07 07:51:27 51°14.133 2°39.623 16.295607 4.281708 33.476329 7.882067
2004-06-07 07:51:32 51°14.132 2°39.592 16.282416 4.287508 33.538177 7.780939
2004-06-07 07:51:35 51°14.13 2°39.574 16.282416 4.287508 33.538177 7.780939
2004-06-07 07:51:41 51°14.128 2°39.537 16.283441 4.285188 33.538349 7.679811
2004-06-07 07:51:47 51°14.126 2°39.5 16.262135 4.276963 33.486836 7.71352
2004-06-07 07:51:51 51°14.124 2°39.475 16.248938 4.288247 33.59307 7.578683
2004-06-07 07:51:57 51°14.121 2°39.438 16.242957 4.291095 33.629214 7.71352
2004-06-07 07:52:02 51°14.119 2°39.407 16.235225 4.285822 33.596713 7.646101
2004-06-07 07:52:07 51°14.117 2°39.376 16.235225 4.285822 33.596713 7.646101
2004-06-07 07:52:12 51°14.115 2°39.345 16.230398 4.283396 33.587285 7.646101
2004-06-07 07:52:17 51°14.112 2°39.314 16.223049 4.283818 33.600326 7.646101
2004-06-07 07:52:21 51°14.111 2°39.289 16.211212 4.281288 33.587479 7.646101
2004-06-07 07:52:27 51°14.108 2°39.252 16.229329 4.053527 31.611974 7.646101
2004-06-07 07:52:32 51°14.106 2°39.221 16.230697 4.286244 33.642184 7.612392
2004-06-07 07:52:37 51°14.104 2°39.191 16.230697 4.286244 33.642184 7.612392
2004-06-07 07:52:42 51°14.102 2°39.16 16.222237 4.286033 33.642831 7.511264
2004-06-07 07:52:47 51°14.1 2°39.129 16.224159 4.289198 33.694986 7.544973
2004-06-07 07:52:51 51°14.098 2°39.104 16.225441 4.286983 33.679916 7.544973
2004-06-07 07:52:57 51°14.096 2°39.067 16.220485 4.286245 33.662176 7.410136
2004-06-07 07:53:02 51°14.094 2°39.036 16.221852 4.287616 33.672962 7.410136
2004-06-07 07:53:07 51°14.092 2°39.005 16.221852 4.287616 33.672962 7.410136
2004-06-07 07:53:11 51°14.09 2°38.981 16.215314 4.28635 33.674985 7.410136
2004-06-07 07:53:17 51°14.088 2°38.944 16.208946 4.291096 33.71291 7.376426
2004-06-07 07:53:21 51°14.087 2°38.919 16.204758 4.287405 33.688629 7.443845
2004-06-07 07:53:27 51°14.085 2°38.882 16.199372 4.286772 33.678064 7.443845
2004-06-07 07:53:31 51°14.083 2°38.858 16.199287 4.286983 33.671158 7.410136
2004-06-07 07:53:37 51°14.08 2°38.82 16.199287 4.286983 33.671158 7.410136
2004-06-07 07:53:41 51°14.079 2°38.796 16.202407 4.290674 33.709831 7.241589
2004-06-07 07:53:47 51°14.076 2°38.759 16.203903 4.291834 33.736944 7.275298
2004-06-07 07:53:49 51°14.076 2°38.747 16.190225 4.291518 33.731029 7.309007
2004-06-07 07:53:57 51°14.073 2°38.697 16.191849 4.291835 33.746354 7.17417
2004-06-07 07:54:01 51°14.071 2°38.672 16.175603 4.290042 33.72934 7.17417
2004-06-07 07:54:07 51°14.069 2°38.634 16.175603 4.290042 33.72934 7.17417
2004-06-07 07:54:12 51°14.067 2°38.603 16.16983 4.293627 33.756465 7.14046
2004-06-07 07:54:17 51°14.065 2°38.571 16.160422 4.290464 33.742459 7.241589
2004-06-07 07:54:22 51°14.063 2°38.54 16.16581 4.285402 33.702971 7.17417
2004-06-07 07:54:27 51°14.061 2°38.509 16.166708 4.289937 33.744728 7.106751
2004-06-07 07:54:32 51°14.058 2°38.478 16.1641 4.293628 33.783475 7.17417
2004-06-07 07:54:37 51°14.055 2°38.447 16.1641 4.293628 33.783475 7.17417
2004-06-07 07:54:42 51°14.051 2°38.417 16.184966 4.293206 33.782908 7.17417
2004-06-07 07:54:47 51°14.046 2°38.387 16.19638 4.285719 33.731483 7.073042
2004-06-07 07:54:52 51°14.041 2°38.357 16.207536 4.284558 33.716881 7.073042
2004-06-07 07:54:57 51°14.036 2°38.327 16.207664 4.289199 33.765879 7.14046
2004-06-07 07:55:03 51°14.029 2°38.291 16.213519 4.289726 33.757318 7.106751
2004-06-07 07:55:07 51°14.025 2°38.267 16.213519 4.289726 33.757318 7.106751
2004-06-07 07:55:12 51°14.019 2°38.238 16.215998 4.291308 33.766836 7.073042
2004-06-07 07:55:17 51°14.013 2°38.208 16.218006 4.292573 33.769799 6.971913
2004-06-07 07:55:22 51°14.008 2°38.178 16.219459 4.292362 33.770458 6.904494
2004-06-07 07:55:27 51°14.002 2°38.148 16.216126 4.295526 33.788857 6.870785
2004-06-07 07:55:32 51°13.997 2°38.118 16.21057 4.294998 33.779821 6.837076
2004-06-07 07:55:37 51°13.992 2°38.088 16.21057 4.294998 33.779821 6.837076
2004-06-07 07:55:41 51°13.987 2°38.064 16.19715 4.296791 33.791816 6.769657
2004-06-07 07:55:47 51°13.98 2°38.028 16.184239 4.295631 33.777219 6.735947
2004-06-07 07:55:51 51°13.976 2°38.004 16.178382 4.303962 33.847328 6.735947
2004-06-07 07:55:57 51°13.969 2°37.969 16.1638 4.285823 33.691638 6.702238
2004-06-07 07:56:02 51°13.964 2°37.939 16.164399 4.294788 33.78048 6.702238
2004-06-07 07:56:07 51°13.959 2°37.909 16.164399 4.294788 33.78048 6.702238
2004-06-07 07:56:12 51°13.953 2°37.879 16.150884 4.295842 33.80233 6.702238
2004-06-07 07:56:17 51°13.948 2°37.849 16.143783 4.296053 33.80104 6.668529
2004-06-07 07:56:22 51°13.943 2°37.819 16.129365 4.299745 33.846109 6.702238
2004-06-07 07:56:27 51°13.937 2°37.789 16.126969 4.295737 33.822173 6.702238
2004-06-07 07:56:32 51°13.932 2°37.759 16.1152 4.291203 33.794844 6.735947
2004-06-07 07:56:37 51°13.926 2°37.729 16.1152 4.291203 33.794844 6.735947
2004-06-07 07:56:41 51°13.922 2°37.704 16.115543 4.294156 33.817065 6.769657
2004-06-07 07:56:47 51°13.915 2°37.668 16.095597 4.293945 33.828442 6.702238
2004-06-07 07:56:52 51°13.909 2°37.638 16.082839 4.290781 33.81381 6.769657
2004-06-07 07:56:57 51°13.904 2°37.608 16.071106 4.288883 33.801497 6.735947
2004-06-07 07:57:01 51°13.899 2°37.584 16.064982 4.28804 33.806041 6.769657
2004-06-07 07:57:05 51°13.895 2°37.56 16.064982 4.28804 33.806041 6.769657
2004-06-07 07:57:12 51°13.887 2°37.517 16.065538 4.287829 33.802291 6.735947
2004-06-07 07:57:17 51°13.882 2°37.488 16.038466 4.284032 33.784588 6.735947
2004-06-07 07:57:21 51°13.877 2°37.464 16.01404 4.287196 33.811221 6.702238
2004-06-07 07:57:27 51°13.869 2°37.429 15.985489 4.28572 33.812087 6.702238
2004-06-07 07:57:31 51°13.863 2°37.406 15.951564 4.282873 33.797702 6.702238
2004-06-07 07:57:37 51°13.853 2°37.372 15.951564 4.282873 33.797702 6.702238
2004-06-07 07:57:41 51°13.847 2°37.349 15.941353 4.280764 33.784144 6.735947
2004-06-07 07:57:47 51°13.837 2°37.315 15.935518 4.281397 33.806149 6.702238
2004-06-07 07:57:52 51°13.829 2°37.287 15.927236 4.278971 33.803697 6.735947
2004-06-07 07:57:57 51°13.821 2°37.259 15.912729 4.276968 33.813834 6.702238
2004-06-07 07:58:01 51°13.814 2°37.236 15.913158 4.281187 33.865706 6.702238
2004-06-07 07:58:07 51°13.803 2°37.203 15.913158 4.281187 33.865706 6.702238
2004-06-07 07:58:11 51°13.796 2°37.181 15.895901 4.274016 33.813063 6.702238
2004-06-07 07:58:17 51°13.785 2°37.148 15.879412 4.276441 33.839589 6.60111
2004-06-07 07:58:21 51°13.778 2°37.126 15.869405 4.271274 33.809724 6.634819
2004-06-07 07:58:27 51°13.767 2°37.093 15.860643 4.269693 33.808408 6.5674
2004-06-07 07:58:31 51°13.76 2°37.07 15.854843 4.267478 33.795146 6.5674
2004-06-07 07:58:37 51°13.749 2°37.037 15.854843 4.267478 33.795146 6.5674
2004-06-07 07:58:42 51°13.741 2°37.009 15.82975 4.2679 33.807763 6.533691
2004-06-07 07:58:47 51°13.732 2°36.981 15.813761 4.267689 33.814782 6.5674
2004-06-07 07:58:51 51°13.725 2°36.959 15.791706 4.266951 33.823487 6.5674
2004-06-07 07:58:57 51°13.714 2°36.925 15.778159 4.264104 33.800163 6.60111
2004-06-07 07:59:02 51°13.705 2°36.898 15.754027 4.267162 33.836164 6.5674
2004-06-07 07:59:07 51°13.696 2°36.87 15.754027 4.267162 33.836164 6.5674
2004-06-07 07:59:09 51°13.693 2°36.859 15.744691 4.264843 33.828951 6.499982
2004-06-07 07:59:17 51°13.679 2°36.814 15.739656 4.263261 33.84038 6.5674
2004-06-07 07:59:22 51°13.67 2°36.786 15.725238 4.261047 33.83028 6.5674
2004-06-07 07:59:27 51°13.662 2°36.759 15.709397 4.255985 33.807637 6.5674
2004-06-07 07:59:32 51°13.653 2°36.731 15.688686 4.262418 33.86923 6.533691
2004-06-07 07:59:37 51°13.644 2°36.703 15.688686 4.262418 33.86923 6.533691
2004-06-07 07:59:41 51°13.637 2°36.681 15.685111 4.254298 33.813042 6.533691
2004-06-07 07:59:47 51°13.626 2°36.648 15.67107 4.258411 33.847031 6.499982
2004-06-07 07:59:52 51°13.617 2°36.62 15.661506 4.256091 33.841093 6.432563
2004-06-07 07:59:57 51°13.608 2°36.592 15.666935 4.255564 33.857482 6.398853
2004-06-07 08:00:02 51°13.599 2°36.564 15.646943 4.255143 33.868434 6.398853
2004-06-07 08:00:07 51°13.591 2°36.536 15.646943 4.255143 33.868434 6.398853
2004-06-07 08:00:12 51°13.582 2°36.508 15.640436 4.251452 33.848382 6.331435
2004-06-07 08:00:17 51°13.573 2°36.48 15.634618 4.251557 33.855078 6.398853
2004-06-07 08:00:21 51°13.566 2°36.458 15.619575 4.252507 33.869286 6.331435
2004-06-07 08:00:27 51°13.556 2°36.425 15.610521 4.250609 33.860067 6.264016
2004-06-07 08:00:32 51°13.547 2°36.397 15.599095 4.249027 33.853023 6.264016
2004-06-07 08:00:37 51°13.538 2°36.369 15.599095 4.249027 33.853023 6.264016
2004-06-07 08:00:42 51°13.529 2°36.341 15.600992 4.251558 33.87172 6.297725
2004-06-07 08:00:47 51°13.52 2°36.314 15.594567 4.248711 33.870062 6.297725
2004-06-07 08:00:52 51°13.511 2°36.286 15.575287 4.247973 33.866689 6.196597
2004-06-07 08:00:57 51°13.501 2°36.26 15.578005 4.249238 33.891436 6.162888
2004-06-07 08:01:02 51°13.491 2°36.233 15.563294 4.247235 33.884481 6.196597
2004-06-07 08:01:07 51°13.481 2°36.207 15.563294 4.247235 33.884481 6.196597
2004-06-07 08:01:12 51°13.47 2°36.18 15.561396 4.249871 33.902855 6.129178
2004-06-07 08:01:16 51°13.462 2°36.159 15.557254 4.252508 33.932792 6.162888
2004-06-07 08:01:22 51°13.45 2°36.128 15.55117 4.245653 33.877434 6.095469
2004-06-07 08:01:27 51°13.439 2°36.102 15.541848 4.24597 33.896954 6.095469
2004-06-07 08:01:31 51°13.431 2°36.081 15.532439 4.25177 33.952579 6.02805
2004-06-07 08:01:37 51°13.419 2°36.049 15.532439 4.25177 33.952579 6.02805
2004-06-07 08:01:42 51°13.408 2°36.022 15.533216 4.253984 33.97106 6.061759
2004-06-07 08:01:47 51°13.398 2°35.996 15.512667 4.243544 33.885589 6.02805
2004-06-07 08:01:52 51°13.388 2°35.969 15.501829 4.24365 33.893601 5.960631
2004-06-07 08:01:57 51°13.377 2°35.943 15.498936 4.248185 33.935374 5.994341
2004-06-07 08:02:00 51°13.371 2°35.928 15.492285 4.245759 33.925301 5.960631
2004-06-07 08:02:07 51°13.355 2°35.892 15.492285 4.245759 33.925301 5.960631
2004-06-07 08:02:12 51°13.344 2°35.867 15.483517 4.249978 33.968137 5.926922
2004-06-07 08:02:17 51°13.332 2°35.842 15.47397 4.244705 33.934559 5.994341
2004-06-07 08:02:22 51°13.321 2°35.817 15.473927 4.246182 33.949687 5.960631
2004-06-07 08:02:27 51°13.309 2°35.793 15.475223 4.2446 33.94264 5.960631
2004-06-07 08:02:32 51°13.297 2°35.768 15.47168 4.245549 33.955639 5.926922
2004-06-07 08:02:37 51°13.286 2°35.744 15.47168 4.245549 33.955639 5.926922
2004-06-07 08:02:42 51°13.274 2°35.719 15.47397 4.241226 33.931171 6.02805
2004-06-07 08:02:47 51°13.262 2°35.694 15.476432 4.243862 33.954102 5.926922
2004-06-07 08:02:52 51°13.25 2°35.67 15.469174 4.243229 33.959417 5.960631
2004-06-07 08:02:57 51°13.239 2°35.645 15.460447 4.246815 33.982448 5.926922
2004-06-07 08:03:02 51°13.227 2°35.62 15.461268 4.24112 33.949587 5.960631
2004-06-07 08:03:07 51°13.215 2°35.595 15.461268 4.24112 33.949587 5.960631
2004-06-07 08:03:11 51°13.206 2°35.576 15.461268 4.242702 33.957283 5.926922
2004-06-07 08:03:16 51°13.195 2°35.551 15.467576 4.24228 33.9548 5.926922
2004-06-07 08:03:22 51°13.181 2°35.521 15.46144 4.24576 33.976891 5.926922
2004-06-07 08:03:27 51°13.169 2°35.496 15.45094 4.241437 33.956939 5.960631
2004-06-07 08:03:32 51°13.157 2°35.472 15.446791 4.242491 33.952813 5.994341
2004-06-07 08:03:37 51°13.146 2°35.447 15.446791 4.242491 33.952813 5.994341
2004-06-07 08:03:41 51°13.136 2°35.428 15.450335 4.24344 33.965825 6.061759
2004-06-07 08:03:47 51°13.122 2°35.398 15.451069 4.244179 33.973075 6.061759
2004-06-07 08:03:51 51°13.112 2°35.379 15.444587 4.244073 33.972778 6.095469
2004-06-07 08:03:57 51°13.098 2°35.349 15.435424 4.248713 34.02077 6.162888
2004-06-07 08:04:02 51°13.086 2°35.325 15.444803 4.244179 33.987296 6.129178
2004-06-07 08:04:07 51°13.075 2°35.3 15.444803 4.244179 33.987296 6.129178
2004-06-07 08:04:11 51°13.066 2°35.28 15.441043 4.244917 33.984851 6.095469
2004-06-07 08:04:17 51°13.052 2°35.25 15.430669 4.240488 33.956198 6.162888
2004-06-07 08:04:22 51°13.04 2°35.225 15.435683 4.243757 33.989341 6.095469
2004-06-07 08:04:27 51°13.029 2°35.201 15.428853 4.244284 33.997296 6.129178
2004-06-07 08:04:32 51°13.017 2°35.176 15.430841 4.240594 33.972657 6.061759
2004-06-07 08:04:37 51°13.006 2°35.151 15.430841 4.240594 33.972657 6.061759
2004-06-07 08:04:39 51°13.001 2°35.142 15.423233 4.242386 33.977067 6.129178
2004-06-07 08:04:47 51°12.983 2°35.103 15.426691 4.240805 33.977133 6.129178
2004-06-07 08:04:52 51°12.971 2°35.078 15.422195 4.246394 34.020067 6.02805
2004-06-07 08:04:56 51°12.961 2°35.059 15.425438 4.243546 33.991981 5.994341
2004-06-07 08:05:02 51°12.946 2°35.032 15.416531 4.243019 33.996966 6.02805
2004-06-07 08:05:07 51°12.933 2°35.009 15.416531 4.243019 33.996966 6.02805
2004-06-07 08:05:11 51°12.923 2°34.99 15.415796 4.243757 33.999694 5.994341
2004-06-07 08:05:16 51°12.911 2°34.968 15.421244 4.24323 34.007921 5.994341
2004-06-07 08:05:21 51°12.898 2°34.945 15.417958 4.246499 34.031377 5.960631
2004-06-07 08:05:27 51°12.883 2°34.917 15.426994 4.240699 33.98719 5.960631
2004-06-07 08:05:32 51°12.87 2°34.894 15.432311 4.247976 34.051088 5.893212
2004-06-07 08:05:37 51°12.857 2°34.871 15.432311 4.247976 34.051088 5.893212
2004-06-07 08:05:42 51°12.845 2°34.848 15.429501 4.243125 34.008919 5.893212
2004-06-07 08:05:47 51°12.832 2°34.826 15.433911 4.248081 34.049439 5.926922
2004-06-07 08:05:52 51°12.82 2°34.803 15.4343 4.246816 34.039397 5.893212
2004-06-07 08:05:57 51°12.807 2°34.78 15.441777 4.245339 34.016451 5.859503
2004-06-07 08:06:02 51°12.794 2°34.757 15.443766 4.251245 34.072596 5.825794
2004-06-07 08:06:07 51°12.782 2°34.734 15.443766 4.251245 34.072596 5.825794
2004-06-07 08:06:11 51°12.771 2°34.716 15.440524 4.246921 34.024142 5.792084
2004-06-07 08:06:16 51°12.759 2°34.693 15.434948 4.248397 34.043845 5.893212
2004-06-07 08:06:20 51°12.748 2°34.674 15.436893 4.247132 34.030565 5.825794
2004-06-07 08:06:27 51°12.731 2°34.642 15.437196 4.247553 34.025275 5.893212
2004-06-07 08:06:31 51°12.721 2°34.624 15.436288 4.248186 34.028998 5.926922
2004-06-07 08:06:37 51°12.705 2°34.596 15.436288 4.248186 34.028998 5.926922
2004-06-07 08:06:42 51°12.693 2°34.573 15.440265 4.250823 34.054551 5.859503
2004-06-07 08:06:47 51°12.68 2°34.55 15.432225 4.248503 34.042197 5.926922
2004-06-07 08:06:52 51°12.667 2°34.527 15.437758 4.255884 34.104433 5.893212
2004-06-07 08:06:56 51°12.656 2°34.509 15.434429 4.244179 34.011889 5.960631
2004-06-07 08:07:02 51°12.641 2°34.481 15.43672 4.244496 34.017315 5.893212
2004-06-07 08:07:06 51°12.631 2°34.463 15.43672 4.244496 34.017315 5.893212
2004-06-07 08:07:12 51°12.615 2°34.435 15.441086 4.246183 34.030487 5.960631
2004-06-07 08:07:17 51°12.603 2°34.411 15.438449 4.248608 34.045086 5.994341
2004-06-07 08:07:22 51°12.59 2°34.388 15.434689 4.251034 34.064868 5.994341
2004-06-07 08:07:26 51°12.58 2°34.369 15.435683 4.250928 34.063924 5.960631
2004-06-07 08:07:32 51°12.565 2°34.341 15.437412 4.25135 34.068351 6.02805
2004-06-07 08:07:37 51°12.552 2°34.318 15.437412 4.25135 34.068351 6.02805
2004-06-07 08:07:42 51°12.539 2°34.295 15.440827 4.244706 34.014022 6.061759
2004-06-07 08:07:46 51°12.528 2°34.276 15.441561 4.250717 34.062034 5.994341
2004-06-07 08:07:52 51°12.513 2°34.248 15.440783 4.251244 34.065461 6.02805
2004-06-07 08:07:57 51°12.5 2°34.225 15.441043 4.252405 34.077799 6.061759
2004-06-07 08:08:02 51°12.488 2°34.202 15.446921 4.249768 34.044458 6.02805
2004-06-07 08:08:08 51°12.472 2°34.174 15.446921 4.249768 34.044458 6.02805
2004-06-07 08:08:12 51°12.462 2°34.155 15.445883 4.247659 34.033992 6.129178
2004-06-07 08:08:16 51°12.451 2°34.138 15.445754 4.245761 34.026708 6.095469
2004-06-07 08:08:22 51°12.434 2°34.112 15.442512 4.249135 34.049161 6.095469
2004-06-07 08:08:26 51°12.423 2°34.095 15.448649 4.246815 34.027084 6.129178
2004-06-07 08:08:32 51°12.406 2°34.069 15.451891 4.249768 34.050291 6.095469
2004-06-07 08:08:37 51°12.393 2°34.047 15.451891 4.249768 34.050291 6.095469
2004-06-07 08:08:42 51°12.378 2°34.026 15.451977 4.252194 34.079153 6.162888
2004-06-07 08:08:48 51°12.361 2°34 15.45941 4.249768 34.050291 6.162888
2004-06-07 08:08:52 51°12.35 2°33.983 15.454397 4.247554 34.030456 6.162888
2004-06-07 08:08:57 51°12.336 2°33.962 15.458156 4.251772 34.064996 6.196597
2004-06-07 08:09:02 51°12.322 2°33.94 15.459626 4.251245 34.068055 6.230306
2004-06-07 08:09:06 51°12.311 2°33.923 15.459626 4.251245 34.068055 6.230306
2004-06-07 08:09:12 51°12.295 2°33.897 15.459496 4.248081 34.025463 6.230306
2004-06-07 08:09:17 51°12.281 2°33.875 15.461224 4.250506 34.049125 6.196597
2004-06-07 08:09:22 51°12.267 2°33.854 15.460619 4.248292 34.027352 6.196597
2004-06-07 08:09:28 51°12.25 2°33.828 15.464897 4.247659 34.022981 6.230306
2004-06-07 08:09:32 51°12.239 2°33.811 15.475741 4.253459 34.066492 6.264016
2004-06-07 08:09:36 51°12.228 2°33.793 15.475741 4.253459 34.066492 6.264016
2004-06-07 08:09:42 51°12.211 2°33.768 15.46615 4.249557 34.036092 6.264016
2004-06-07 08:09:46 51°12.2 2°33.75 15.465329 4.24903 34.026839 6.331435
2004-06-07 08:09:52 51°12.183 2°33.724 15.467921 4.248608 34.025004 6.264016
2004-06-07 08:09:57 51°12.169 2°33.703 15.469693 4.250506 34.034876 6.297725
2004-06-07 08:10:02 51°12.155 2°33.681 15.475482 4.256517 34.099067 6.365144
2004-06-07 08:10:07 51°12.141 2°33.659 15.475482 4.256517 34.099067 6.365144
2004-06-07 08:10:12 51°12.127 2°33.638 15.470514 4.248291 34.018936 6.365144
2004-06-07 08:10:17 51°12.112 2°33.617 15.476432 4.250611 34.039057 6.331435
2004-06-07 08:10:22 51°12.098 2°33.596 15.483171 4.245866 34.00693 6.365144
2004-06-07 08:10:26 51°12.087 2°33.58 15.483603 4.251982 34.05133 6.365144
2004-06-07 08:10:32 51°12.071 2°33.558 15.484769 4.251771 34.052681 6.398853
2004-06-07 08:10:37 51°12.059 2°33.541 15.484769 4.251771 34.052681 6.398853
2004-06-07 08:10:42 51°12.048 2°33.525 15.488095 4.250822 34.036413 6.398853
2004-06-07 08:10:48 51°12.034 2°33.507 15.490903 4.251982 34.046149 6.398853
2004-06-07 08:10:52 51°12.026 2°33.496 15.495049 4.255779 34.074301 6.432563
2004-06-07 08:10:57 51°12.015 2°33.483 15.499713 4.253564 34.051889 6.398853
2004-06-07 08:11:02 51°12.006 2°33.47 15.50157 4.249662 34.026677 6.398853
2004-06-07 08:11:07 51°11.996 2°33.459 15.50157 4.249662 34.026677 6.398853
2004-06-07 08:11:12 51°11.987 2°33.447 15.501527 4.253248 34.04841 6.432563
2004-06-07 08:11:17 51°11.977 2°33.436 15.504204 4.256517 34.072485 6.432563
2004-06-07 08:11:22 51°11.969 2°33.425 15.50917 4.252193 34.035737 6.398853
2004-06-07 08:11:26 51°11.962 2°33.417 15.507443 4.254935 34.057035 6.398853
2004-06-07 08:11:32 51°11.952 2°33.405 15.505845 4.253669 34.0483 6.398853
2004-06-07 08:11:37 51°11.943 2°33.396 15.505845 4.253669 34.0483 6.398853
2004-06-07 08:11:42 51°11.935 2°33.388 15.507615 4.25388 34.041774 6.398853
2004-06-07 08:11:46 51°11.929 2°33.382 15.51271 4.253247 34.043878 6.432563
2004-06-07 08:11:52 51°11.92 2°33.375 15.516078 4.257466 34.069968 6.365144
2004-06-07 08:11:54 51°11.917 2°33.373 15.517416 4.255778 34.060051 6.365144
2004-06-07 08:12:02 51°11.905 2°33.365 15.522511 4.257044 34.061015 6.365144
2004-06-07 08:12:06 51°11.899 2°33.361 15.522511 4.257044 34.061015 6.365144
2004-06-07 08:12:12 51°11.891 2°33.356 15.528338 4.253353 34.040292 6.398853
2004-06-07 08:12:16 51°11.886 2°33.354 15.532007 4.258309 34.07363 6.365144
2004-06-07 08:12:22 51°11.879 2°33.35 15.538439 4.258731 34.074166 6.365144
2004-06-07 08:12:27 51°11.873 2°33.347 15.544006 4.258414 34.0681 6.365144
2004-06-07 08:12:32 51°11.868 2°33.345 15.548235 4.257254 34.049316 6.398853
2004-06-07 08:12:37 51°11.863 2°33.342 15.548235 4.257254 34.049316 6.398853
2004-06-07 08:12:42 51°11.858 2°33.339 15.549832 4.255145 34.041449 6.398853
2004-06-07 08:12:46 51°11.855 2°33.337 15.55583 4.259574 34.07265 6.297725
2004-06-07 08:12:52 51°11.849 2°33.333 15.554924 4.254407 34.02192 6.331435
2004-06-07 08:12:57 51°11.845 2°33.331 15.558117 4.259996 34.05637 6.297725
2004-06-07 08:13:02 51°11.841 2°33.327 15.558893 4.262421 34.082578 6.365144
2004-06-07 08:13:07 51°11.836 2°33.324 15.558893 4.262421 34.082578 6.365144
2004-06-07 08:13:12 51°11.832 2°33.321 15.558419 4.260312 34.063724 6.331435
2004-06-07 08:13:16 51°11.829 2°33.318 15.560878 4.267694 34.120652 6.365144
2004-06-07 08:13:21 51°11.825 2°33.315 15.558893 4.25641 34.022389 6.331435
2004-06-07 08:13:27 51°11.821 2°33.311 15.558333 4.264636 34.083613 6.331435
2004-06-07 08:13:31 51°11.818 2°33.308 15.559411 4.260312 34.054027 6.365144
2004-06-07 08:13:37 51°11.814 2°33.304 15.559411 4.260312 34.054027 6.365144
2004-06-07 08:13:42 51°11.81 2°33.301 15.553759 4.263476 34.074541 6.331435
2004-06-07 08:13:47 51°11.806 2°33.298 15.553716 4.258309 34.041936 6.398853
2004-06-07 08:13:52 51°11.803 2°33.294 15.555096 4.261578 34.060811 6.432563
2004-06-07 08:13:57 51°11.799 2°33.291 15.555528 4.26105 34.053515 6.398853
2004-06-07 08:14:02 51°11.796 2°33.287 15.555916 4.266429 34.109988 6.432563
2004-06-07 08:14:04 51°11.795 2°33.286 15.555916 4.266429 34.109988 6.432563
2004-06-07 08:14:12 51°11.79 2°33.28 15.557772 4.260312 34.055966 6.466272
2004-06-07 08:14:17 51°11.787 2°33.277 15.555614 4.265796 34.103037 6.466272
2004-06-07 08:14:22 51°11.784 2°33.273 15.557168 4.264952 34.089674 6.499982
2004-06-07 08:14:27 51°11.781 2°33.27 15.55665 4.261472 34.065686 6.533691
2004-06-07 08:14:32 51°11.778 2°33.267 15.553241 4.259152 34.046891 6.499982
2004-06-07 08:14:37 51°11.775 2°33.263 15.553241 4.259152 34.046891 6.499982
2004-06-07 08:14:42 51°11.772 2°33.26 15.548537 4.263054 34.075297 6.533691
2004-06-07 08:14:45 51°11.77 2°33.258 15.553845 4.261683 34.065632 6.60111
2004-06-07 08:14:52 51°11.766 2°33.253 15.549314 4.258625 34.041533 6.5674
2004-06-07 08:14:57 51°11.763 2°33.249 15.549616 4.259047 34.043364 6.60111
2004-06-07 08:15:00 51°11.76 2°33.247 15.55022 4.263054 34.066893 6.634819
2004-06-07 08:15:06 51°11.756 2°33.242 15.55022 4.263054 34.066893 6.634819
2004-06-07 08:15:12 51°11.751 2°33.237 15.549487 4.263476 34.077774 6.634819
2004-06-07 08:15:17 51°11.747 2°33.233 15.552723 4.260734 34.062321 6.668529
2004-06-07 08:15:22 51°11.743 2°33.229 15.554277 4.261894 34.062345 6.668529
2004-06-07 08:15:26 51°11.739 2°33.226 15.547761 4.260207 34.058255 6.668529
2004-06-07 08:15:32 51°11.734 2°33.22 15.549228 4.259679 34.045788 6.702238
2004-06-07 08:15:36 51°11.73 2°33.217 15.549228 4.259679 34.045788 6.702238
2004-06-07 08:15:42 51°11.724 2°33.212 15.549616 4.257465 34.026646 6.735947
2004-06-07 08:15:47 51°11.719 2°33.207 15.555528 4.262105 34.068755 6.702238
2004-06-07 08:15:52 51°11.714 2°33.202 15.555787 4.258625 34.049934 6.735947
2004-06-07 08:15:57 51°11.709 2°33.198 15.55104 4.255251 34.023001 6.735947
2004-06-07 08:16:02 51°11.704 2°33.193 15.552205 4.263792 34.087069 6.769657
2004-06-07 08:16:07 51°11.699 2°33.188 15.552205 4.263792 34.087069 6.769657
2004-06-07 08:16:12 51°11.693 2°33.183 15.552335 4.25852 34.047052 6.769657
2004-06-07 08:16:17 51°11.688 2°33.178 15.552507 4.258836 34.04471 6.769657
2004-06-07 08:16:20 51°11.685 2°33.175 15.556736 4.259469 34.05295 6.803366
2004-06-07 08:16:26 51°11.678 2°33.169 15.553931 4.258098 34.029717 6.837076
2004-06-07 08:16:32 51°11.672 2°33.163 15.556866 4.256094 34.029896 6.803366
2004-06-07 08:16:36 51°11.667 2°33.159 15.556866 4.256094 34.029896 6.803366
2004-06-07 08:16:42 51°11.66 2°33.153 15.556132 4.258098 34.029717 6.837076
2004-06-07 08:16:46 51°11.656 2°33.149 15.559239 4.259257 34.034269 6.837076
2004-06-07 08:16:52 51°11.649 2°33.143 15.558203 4.26221 34.067758 6.870785
2004-06-07 08:16:57 51°11.644 2°33.138 15.560404 4.26084 34.062617 6.938204